Wetterdaten: Sonntag, 23.02.2014
Datum Zeit Temp. Aussen +5cm Feuchte Auss Luftdruck Regen Sonnenschein Regendauer UV Solar Windben
23.02.2014 00:00 3,9 C 2,2 C 86 % 1018,6 hPa 0,0 l/m 0 min 0 min 0,0 UV-I 0 W/m 0,0 km/h (0 Bft)
23.02.2014 00:02 3,9 C 2,2 C 86 % 1018,6 hPa 0,0 l/m 0 min 0 min 0,0 UV-I 0 W/m 0,0 km/h (0 Bft)
23.02.2014 00:06 3,9 C 2,2 C 86 % 1018,7 hPa 0,0 l/m 0 min 0 min 0,0 UV-I 0 W/m 12,9 km/h (3 Bft)
23.02.2014 00:08 3,9 C 2,2 C 86 % 1018,6 hPa 0,0 l/m 0 min 0 min 0,0 UV-I 0 W/m 7,7 km/h (2 Bft)
23.02.2014 00:10 3,8 C 2,2 C 86 % 1018,6 hPa 0,0 l/m 0 min 0 min 0,0 UV-I 0 W/m 0,0 km/h (0 Bft)
23.02.2014 00:12 3,8 C 2,2 C 86 % 1018,6 hPa 0,0 l/m 0 min 0 min 0,0 UV-I 0 W/m 15,4 km/h (3 Bft)
23.02.2014 00:14 3,8 C 2,2 C 86 % 1018,6 hPa 0,0 l/m 0 min 0 min 0,0 UV-I 0 W/m 5,1 km/h (1 Bft)
23.02.2014 00:16 3,8 C 2,2 C 86 % 1018,6 hPa 0,0 l/m 0 min 0 min 0,0 UV-I 0 W/m 5,1 km/h (1 Bft)
23.02.2014 00:18 3,8 C 2,2 C 86 % 1018,7 hPa 0,0 l/m 0 min 0 min 0,0 UV-I 0 W/m 10,3 km/h (2 Bft)
23.02.2014 00:20 3,8 C 2,2 C 86 % 1018,7 hPa 0,0 l/m 0 min 0 min 0,0 UV-I 0 W/m 2,6 km/h (1 Bft)
23.02.2014 00:22 3,7 C 2,2 C 86 % 1018,6 hPa 0,0 l/m 0 min 0 min 0,0 UV-I 0 W/m 7,7 km/h (2 Bft)
23.02.2014 00:24 3,7 C 2,2 C 86 % 1018,7 hPa 0,0 l/m 0 min 0 min 0,0 UV-I 0 W/m 5,1 km/h (1 Bft)
23.02.2014 00:26 3,7 C 2,2 C 86 % 1018,7 hPa 0,0 l/m 0 min 0 min 0,0 UV-I 0 W/m 0,0 km/h (0 Bft)
23.02.2014 00:28 3,7 C 2,2 C 86 % 1018,8 hPa 0,0 l/m 0 min 0 min 0,0 UV-I 0 W/m 5,1 km/h (1 Bft)
23.02.2014 00:30 3,7 C 2,2 C 86 % 1018,7 hPa 0,0 l/m 0 min 0 min 0,0 UV-I 0 W/m 0,0 km/h (0 Bft)
23.02.2014 00:32 3,7 C 2,2 C 86 % 1018,7 hPa 0,0 l/m 0 min 0 min 0,0 UV-I 0 W/m 0,0 km/h (0 Bft)
23.02.2014 00:34 3,7 C 2,2 C 87 % 1018,7 hPa 0,0 l/m 0 min 0 min 0,0 UV-I 0 W/m 5,1 km/h (1 Bft)
23.02.2014 00:36 3,7 C 2,2 C 87 % 1018,7 hPa 0,0 l/m 0 min 0 min 0,0 UV-I 0 W/m 0,0 km/h (0 Bft)
23.02.2014 00:38 3,7 C 2,2 C 87 % 1018,7 hPa 0,0 l/m 0 min 0 min 0,0 UV-I 0 W/m 5,1 km/h (1 Bft)
23.02.2014 00:40 3,7 C 2,2 C 87 % 1018,7 hPa 0,0 l/m 0 min 0 min 0,0 UV-I 0 W/m 10,3 km/h (2 Bft)
23.02.2014 00:42 3,6 C 2,2 C 87 % 1018,8 hPa 0,0 l/m 0 min 0 min 0,0 UV-I 0 W/m 5,1 km/h (1 Bft)
23.02.2014 00:44 3,6 C 2,2 C 87 % 1018,7 hPa 0,0 l/m 0 min 0 min 0,0 UV-I 0 W/m 5,1 km/h (1 Bft)
23.02.2014 00:46 3,6 C 2,2 C 87 % 1018,8 hPa 0,0 l/m 0 min 0 min 0,0 UV-I 0 W/m 0,0 km/h (0 Bft)
23.02.2014 00:48 3,6 C 1,7 C 87 % 1018,8 hPa 0,0 l/m 0 min 0 min 0,0 UV-I 0 W/m 0,0 km/h (0 Bft)
23.02.2014 00:50 3,6 C 1,7 C 87 % 1018,8 hPa 0,0 l/m 0 min 0 min 0,0 UV-I 0 W/m 5,1 km/h (1 Bft)
23.02.2014 00:52 3,6 C 1,7 C 87 % 1018,8 hPa 0,0 l/m 0 min 0 min 0,0 UV-I 0 W/m 0,0 km/h (0 Bft)
23.02.2014 00:54 3,6 C 1,7 C 87 % 1018,8 hPa 0,0 l/m 0 min 0 min 0,0 UV-I 0 W/m 0,0 km/h (0 Bft)
23.02.2014 00:56 3,6 C 1,7 C 87 % 1018,8 hPa 0,0 l/m 0 min 0 min 0,0 UV-I 0 W/m 0,0 km/h (0 Bft)
23.02.2014 00:58 3,6 C 1,7 C 87 % 1018,8 hPa 0,0 l/m 0 min 0 min 0,0 UV-I 0 W/m 0,0 km/h (0 Bft)
23.02.2014 01:00 3,6 C 1,7 C 87 % 1018,8 hPa 0,0 l/m 0 min 0 min 0,0 UV-I 0 W/m 5,1 km/h (1 Bft)
23.02.2014 01:02 3,5 C 1,7 C 87 % 1018,8 hPa 0,0 l/m 0 min 0 min 0,0 UV-I 0 W/m 0,0 km/h (0 Bft)
23.02.2014 01:04 3,5 C 1,7 C 87 % 1018,8 hPa 0,0 l/m 0 min 0 min 0,0 UV-I 0 W/m 0,0 km/h (0 Bft)
23.02.2014 01:06 3,5 C 1,7 C 87 % 1018,8 hPa 0,0 l/m 0 min 0 min 0,0 UV-I 0 W/m 7,7 km/h (2 Bft)
23.02.2014 01:08 3,4 C 1,7 C 87 % 1018,7 hPa 0,0 l/m 0 min 0 min 0,0 UV-I 0 W/m 0,0 km/h (0 Bft)
23.02.2014 01:10 3,4 C 1,7 C 87 % 1018,7 hPa 0,0 l/m 0 min 0 min 0,0 UV-I 0 W/m 0,0 km/h (0 Bft)
23.02.2014 01:12 3,4 C 1,7 C 87 % 1018,8 hPa 0,0 l/m 0 min 0 min 0,0 UV-I 0 W/m 5,1 km/h (1 Bft)
23.02.2014 01:14 3,4 C 1,1 C 87 % 1018,8 hPa 0,0 l/m 0 min 0 min 0,0 UV-I 0 W/m 0,0 km/h (0 Bft)
23.02.2014 01:16 3,4 C 1,1 C 87 % 1018,7 hPa 0,0 l/m 0 min 0 min 0,0 UV-I 0 W/m 5,1 km/h (1 Bft)
23.02.2014 01:18 3,4 C 1,1 C 87 % 1018,8 hPa 0,0 l/m 0 min 0 min 0,0 UV-I 0 W/m 0,0 km/h (0 Bft)
23.02.2014 01:20 3,3 C 1,1 C 87 % 1018,8 hPa 0,0 l/m 0 min 0 min 0,0 UV-I 0 W/m 5,1 km/h (1 Bft)
23.02.2014 01:22 3,3 C 1,1 C 87 % 1018,7 hPa 0,0 l/m 0 min 0 min 0,0 UV-I 0 W/m 0,0 km/h (0 Bft)
23.02.2014 01:24 3,3 C 1,1 C 87 % 1018,8 hPa 0,0 l/m 0 min 0 min 0,0 UV-I 0 W/m 0,0 km/h (0 Bft)
23.02.2014 01:26 3,3 C 1,1 C 87 % 1018,7 hPa 0,0 l/m 0 min 0 min 0,0 UV-I 0 W/m 0,0 km/h (0 Bft)
23.02.2014 01:28 3,2 C 1,1 C 87 % 1018,7 hPa 0,0 l/m 0 min 0 min 0,0 UV-I 0 W/m 0,0 km/h (0 Bft)
23.02.2014 01:30 3,2 C 1,1 C 87 % 1018,7 hPa 0,0 l/m 0 min 0 min 0,0 UV-I 0 W/m 0,0 km/h (0 Bft)
23.02.2014 01:32 3,2 C 1,1 C 87 % 1018,7 hPa 0,0 l/m 0 min 0 min 0,0 UV-I 0 W/m 0,0 km/h (0 Bft)
23.02.2014 01:34 3,2 C 1,1 C 87 % 1018,8 hPa 0,0 l/m 0 min 0 min 0,0 UV-I 0 W/m 0,0 km/h (0 Bft)
23.02.2014 01:36 3,2 C 1,1 C 87 % 1018,7 hPa 0,0 l/m 0 min 0 min 0,0 UV-I 0 W/m 0,0 km/h (0 Bft)
23.02.2014 01:38 3,1 C 0,6 C 87 % 1018,7 hPa 0,0 l/m 0 min 0 min 0,0 UV-I 0 W/m 0,0 km/h (0 Bft)
23.02.2014 01:40 3,1 C 0,6 C 87 % 1018,7 hPa 0,0 l/m 0 min 0 min 0,0 UV-I 0 W/m 0,0 km/h (0 Bft)
23.02.2014 01:42 3,1 C 0,6 C 87 % 1018,7 hPa 0,0 l/m 0 min 0 min 0,0 UV-I 0 W/m 0,0 km/h (0 Bft)
23.02.2014 01:44 3,1 C 0,6 C 87 % 1018,7 hPa 0,0 l/m 0 min 0 min 0,0 UV-I 0 W/m 0,0 km/h (0 Bft)
23.02.2014 01:46 3,0 C 0,6 C 87 % 1018,7 hPa 0,0 l/m 0 min 0 min 0,0 UV-I 0 W/m 0,0 km/h (0 Bft)
23.02.2014 01:48 3,0 C 0,6 C 87 % 1018,7 hPa 0,0 l/m 0 min 0 min 0,0 UV-I 0 W/m 0,0 km/h (0 Bft)
23.02.2014 01:50 2,9 C 0,6 C 87 % 1018,8 hPa 0,0 l/m 0 min 0 min 0,0 UV-I 0 W/m 0,0 km/h (0 Bft)
23.02.2014 01:52 2,9 C 0,6 C 87 % 1018,8 hPa 0,0 l/m 0 min 0 min 0,0 UV-I 0 W/m 5,1 km/h (1 Bft)
23.02.2014 01:54 2,9 C 0,6 C 87 % 1018,8 hPa 0,0 l/m 0 min 0 min 0,0 UV-I 0 W/m 7,7 km/h (2 Bft)
23.02.2014 01:56 2,9 C 0,6 C 87 % 1018,7 hPa 0,0 l/m 0 min 0 min 0,0 UV-I 0 W/m 0,0 km/h (0 Bft)
23.02.2014 01:58 2,9 C 0,6 C 87 % 1018,7 hPa 0,0 l/m 0 min 0 min 0,0 UV-I 0 W/m 0,0 km/h (0 Bft)
23.02.2014 02:00 2,8 C 0,6 C 88 % 1018,7 hPa 0,0 l/m 0 min 0 min 0,0 UV-I 0 W/m 0,0 km/h (0 Bft)
23.02.2014 02:02 2,8 C 0,6 C 88 % 1018,7 hPa 0,0 l/m 0 min 0 min 0,0 UV-I 0 W/m 0,0 km/h (0 Bft)
23.02.2014 02:04 2,8 C 0,6 C 88 % 1018,7 hPa 0,0 l/m 0 min 0 min 0,0 UV-I 0 W/m 2,6 km/h (1 Bft)
23.02.2014 02:06 2,8 C 0,6 C 88 % 1018,7 hPa 0,0 l/m 0 min 0 min 0,0 UV-I 0 W/m 0,0 km/h (0 Bft)
23.02.2014 02:08 2,8 C 0,6 C 88 % 1018,8 hPa 0,0 l/m 0 min 0 min 0,0 UV-I 0 W/m 0,0 km/h (0 Bft)
23.02.2014 02:10 2,7 C 0,6 C 88 % 1018,8 hPa 0,0 l/m 0 min 0 min 0,0 UV-I 0 W/m 0,0 km/h (0 Bft)
23.02.2014 02:12 2,7 C 0,6 C 88 % 1018,8 hPa 0,0 l/m 0 min 0 min 0,0 UV-I 0 W/m 10,3 km/h (2 Bft)
23.02.2014 02:14 2,7 C 0,6 C 88 % 1018,8 hPa 0,0 l/m 0 min 0 min 0,0 UV-I 0 W/m 2,6 km/h (1 Bft)
23.02.2014 02:16 2,7 C 0,6 C 88 % 1018,8 hPa 0,0 l/m 0 min 0 min 0,0 UV-I 0 W/m 0,0 km/h (0 Bft)
23.02.2014 02:18 2,7 C 0,6 C 88 % 1018,7 hPa 0,0 l/m 0 min 0 min 0,0 UV-I 0 W/m 0,0 km/h (0 Bft)
23.02.2014 02:20 2,7 C 0,6 C 88 % 1018,8 hPa 0,0 l/m 0 min 0 min 0,0 UV-I 0 W/m 0,0 km/h (0 Bft)
23.02.2014 02:22 2,7 C 0,6 C 88 % 1018,8 hPa 0,0 l/m 0 min 0 min 0,0 UV-I 0 W/m 5,1 km/h (1 Bft)
23.02.2014 02:24 2,7 C 0,6 C 89 % 1018,8 hPa 0,0 l/m 0 min 0 min 0,0 UV-I 0 W/m 0,0 km/h (0 Bft)
23.02.2014 02:26 2,6 C 0,6 C 89 % 1018,8 hPa 0,0 l/m 0 min 0 min 0,0 UV-I 0 W/m 2,6 km/h (1 Bft)
23.02.2014 02:28 2,6 C 0,6 C 89 % 1018,8 hPa 0,0 l/m 0 min 0 min 0,0 UV-I 0 W/m 0,0 km/h (0 Bft)
23.02.2014 02:30 2,6 C 0,6 C 89 % 1018,9 hPa 0,0 l/m 0 min 0 min 0,0 UV-I 0 W/m 0,0 km/h (0 Bft)
23.02.2014 02:32 2,6 C 0,6 C 89 % 1018,8 hPa 0,0 l/m 0 min 0 min 0,0 UV-I 0 W/m 0,0 km/h (0 Bft)
23.02.2014 02:34 2,6 C 0,6 C 89 % 1018,8 hPa 0,0 l/m 0 min 0 min 0,0 UV-I 0 W/m 0,0 km/h (0 Bft)
23.02.2014 02:36 2,6 C 0,6 C 89 % 1018,8 hPa 0,0 l/m 0 min 0 min 0,0 UV-I 0 W/m 0,0 km/h (0 Bft)
23.02.2014 02:38 2,6 C 0,6 C 89 % 1018,9 hPa 0,0 l/m 0 min 0 min 0,0 UV-I 0 W/m 0,0 km/h (0 Bft)
23.02.2014 02:40 2,5 C 0,0 C 89 % 1018,9 hPa 0,0 l/m 0 min 0 min 0,0 UV-I 0 W/m 0,0 km/h (0 Bft)
23.02.2014 02:42 2,5 C 0,0 C 89 % 1018,9 hPa 0,0 l/m 0 min 0 min 0,0 UV-I 0 W/m 0,0 km/h (0 Bft)
23.02.2014 02:44 2,5 C 0,0 C 89 % 1018,9 hPa 0,0 l/m 0 min 0 min 0,0 UV-I 0 W/m 0,0 km/h (0 Bft)
23.02.2014 02:46 2,4 C 0,0 C 89 % 1018,9 hPa 0,0 l/m 0 min 0 min 0,0 UV-I 0 W/m 0,0 km/h (0 Bft)
23.02.2014 02:48 2,4 C 0,0 C 89 % 1018,9 hPa 0,0 l/m 0 min 0 min 0,0 UV-I 0 W/m 0,0 km/h (0 Bft)
23.02.2014 02:50 2,4 C 0,0 C 89 % 1018,9 hPa 0,0 l/m 0 min 0 min 0,0 UV-I 0 W/m 0,0 km/h (0 Bft)
23.02.2014 02:52 2,4 C 0,0 C 89 % 1018,9 hPa 0,0 l/m 0 min 0 min 0,0 UV-I 0 W/m 0,0 km/h (0 Bft)
23.02.2014 02:54 2,3 C 0,0 C 89 % 1018,9 hPa 0,0 l/m 0 min 0 min 0,0 UV-I 0 W/m 0,0 km/h (0 Bft)
23.02.2014 02:56 2,3 C 0,0 C 89 % 1019,0 hPa 0,0 l/m 0 min 0 min 0,0 UV-I 0 W/m 0,0 km/h (0 Bft)
23.02.2014 02:58 2,3 C 0,0 C 89 % 1019,1 hPa 0,0 l/m 0 min 0 min 0,0 UV-I 0 W/m 0,0 km/h (0 Bft)
23.02.2014 03:00 2,3 C 0,0 C 89 % 1019,0 hPa 0,0 l/m 0 min 0 min 0,0 UV-I 0 W/m 0,0 km/h (0 Bft)
23.02.2014 03:02 2,2 C 0,0 C 89 % 1019,0 hPa 0,0 l/m 0 min 0 min 0,0 UV-I 0 W/m 0,0 km/h (0 Bft)
23.02.2014 03:04 2,2 C 0,0 C 89 % 1019,0 hPa 0,0 l/m 0 min 0 min 0,0 UV-I 0 W/m 0,0 km/h (0 Bft)
23.02.2014 03:06 2,2 C 0,0 C 89 % 1019,0 hPa 0,0 l/m 0 min 0 min 0,0 UV-I 0 W/m 0,0 km/h (0 Bft)
23.02.2014 03:08 2,2 C 0,0 C 89 % 1019,0 hPa 0,0 l/m 0 min 0 min 0,0 UV-I 0 W/m 0,0 km/h (0 Bft)
23.02.2014 03:10 2,1 C 0,0 C 89 % 1019,0 hPa 0,0 l/m 0 min 0 min 0,0 UV-I 0 W/m 5,1 km/h (1 Bft)
23.02.2014 03:12 2,1 C 0,0 C 89 % 1019,0 hPa 0,0 l/m 0 min 0 min 0,0 UV-I 0 W/m 0,0 km/h (0 Bft)
23.02.2014 03:14 2,1 C 0,0 C 89 % 1019,0 hPa 0,0 l/m 0 min 0 min 0,0 UV-I 0 W/m 0,0 km/h (0 Bft)
23.02.2014 03:16 2,1 C 0,0 C 89 % 1019,0 hPa 0,0 l/m 0 min 0 min 0,0 UV-I 0 W/m 0,0 km/h (0 Bft)
23.02.2014 03:18 2,0 C 0,0 C 89 % 1019,0 hPa 0,0 l/m 0 min 0 min 0,0 UV-I 0 W/m 0,0 km/h (0 Bft)
23.02.2014 03:20 2,0 C 0,0 C 89 % 1019,0 hPa 0,0 l/m 0 min 0 min 0,0 UV-I 0 W/m 0,0 km/h (0 Bft)
23.02.2014 03:22 1,9 C 0,0 C 89 % 1019,0 hPa 0,0 l/m 0 min 0 min 0,0 UV-I 0 W/m 0,0 km/h (0 Bft)
23.02.2014 03:24 1,9 C 0,0 C 89 % 1019,0 hPa 0,0 l/m 0 min 0 min 0,0 UV-I 0 W/m 0,0 km/h (0 Bft)
23.02.2014 03:26 1,9 C 0,0 C 90 % 1019,0 hPa 0,0 l/m 0 min 0 min 0,0 UV-I 0 W/m 5,1 km/h (1 Bft)
23.02.2014 03:28 1,9 C 0,0 C 90 % 1019,0 hPa 0,0 l/m 0 min 0 min 0,0 UV-I 0 W/m 0,0 km/h (0 Bft)
23.02.2014 03:30 1,9 C 0,0 C 90 % 1019,0 hPa 0,0 l/m 0 min 0 min 0,0 UV-I 0 W/m 2,6 km/h (1 Bft)
23.02.2014 03:32 1,9 C 0,0 C 90 % 1019,0 hPa 0,0 l/m 0 min 0 min 0,0 UV-I 0 W/m 5,1 km/h (1 Bft)
23.02.2014 03:34 1,8 C 0,0 C 90 % 1019,0 hPa 0,0 l/m 0 min 0 min 0,0 UV-I 0 W/m 0,0 km/h (0 Bft)
23.02.2014 03:36 1,8 C 0,0 C 90 % 1019,0 hPa 0,0 l/m 0 min 0 min 0,0 UV-I 0 W/m 2,6 km/h (1 Bft)
23.02.2014 03:38 1,8 C 0,0 C 90 % 1019,0 hPa 0,0 l/m 0 min 0 min 0,0 UV-I 0 W/m 7,7 km/h (2 Bft)
23.02.2014 03:40 1,8 C 0,0 C 90 % 1019,0 hPa 0,0 l/m 0 min 0 min 0,0 UV-I 0 W/m 2,6 km/h (1 Bft)
23.02.2014 03:42 1,8 C 0,0 C 90 % 1019,0 hPa 0,0 l/m 0 min 0 min 0,0 UV-I 0 W/m 5,1 km/h (1 Bft)
23.02.2014 03:44 1,7 C 0,0 C 90 % 1019,0 hPa 0,0 l/m 0 min 0 min 0,0 UV-I 0 W/m 0,0 km/h (0 Bft)
23.02.2014 03:46 1,7 C 0,0 C 90 % 1019,0 hPa 0,0 l/m 0 min 0 min 0,0 UV-I 0 W/m 7,7 km/h (2 Bft)
23.02.2014 03:48 1,7 C 0,0 C 90 % 1019,0 hPa 0,0 l/m 0 min 0 min 0,0 UV-I 0 W/m 7,7 km/h (2 Bft)
23.02.2014 03:50 1,7 C 0,0 C 91 % 1019,0 hPa 0,0 l/m 0 min 0 min 0,0 UV-I 0 W/m 2,6 km/h (1 Bft)
23.02.2014 03:52 1,7 C 0,0 C 91 % 1019,0 hPa 0,0 l/m 0 min 0 min 0,0 UV-I 0 W/m 7,7 km/h (2 Bft)
23.02.2014 03:54 1,7 C 0,0 C 90 % 1019,0 hPa 0,0 l/m 0 min 0 min 0,0 UV-I 0 W/m 5,1 km/h (1 Bft)
23.02.2014 03:56 1,7 C 0,0 C 91 % 1019,0 hPa 0,0 l/m 0 min 0 min 0,0 UV-I 0 W/m 2,6 km/h (1 Bft)
23.02.2014 03:58 1,7 C 0,0 C 91 % 1019,0 hPa 0,0 l/m 0 min 0 min 0,0 UV-I 0 W/m 5,1 km/h (1 Bft)
23.02.2014 04:00 1,7 C 0,0 C 91 % 1019,0 hPa 0,0 l/m 0 min 0 min 0,0 UV-I 0 W/m 0,0 km/h (0 Bft)
23.02.2014 04:02 1,7 C 0,0 C 91 % 1019,0 hPa 0,0 l/m 0 min 0 min 0,0 UV-I 0 W/m 0,0 km/h (0 Bft)
23.02.2014 04:04 1,6 C -0,6 C 91 % 1019,0 hPa 0,0 l/m 0 min 0 min 0,0 UV-I 0 W/m 2,6 km/h (1 Bft)
23.02.2014 04:06 1,6 C -0,6 C 91 % 1019,0 hPa 0,0 l/m 0 min 0 min 0,0 UV-I 0 W/m 0,0 km/h (0 Bft)
23.02.2014 04:08 1,6 C 0,0 C 91 % 1019,0 hPa 0,0 l/m 0 min 0 min 0,0 UV-I 0 W/m 2,6 km/h (1 Bft)
23.02.2014 04:10 1,6 C 0,0 C 91 % 1019,0 hPa 0,0 l/m 0 min 0 min 0,0 UV-I 0 W/m 5,1 km/h (1 Bft)
23.02.2014 04:12 1,6 C 0,0 C 91 % 1019,0 hPa 0,0 l/m 0 min 0 min 0,0 UV-I 0 W/m 7,7 km/h (2 Bft)
23.02.2014 04:14 1,6 C 0,0 C 91 % 1019,0 hPa 0,0 l/m 0 min 0 min 0,0 UV-I 0 W/m 12,9 km/h (3 Bft)
23.02.2014 04:16 1,6 C 0,0 C 91 % 1019,0 hPa 0,0 l/m 0 min 0 min 0,0 UV-I 0 W/m 7,7 km/h (2 Bft)
23.02.2014 04:18 1,6 C 0,0 C 91 % 1019,1 hPa 0,0 l/m 0 min 0 min 0,0 UV-I 0 W/m 5,1 km/h (1 Bft)
23.02.2014 04:20 1,5 C 0,0 C 91 % 1019,0 hPa 0,0 l/m 0 min 0 min 0,0 UV-I 0 W/m 0,0 km/h (0 Bft)
23.02.2014 04:22 1,5 C 0,0 C 91 % 1019,1 hPa 0,0 l/m 0 min 0 min 0,0 UV-I 0 W/m 7,7 km/h (2 Bft)
23.02.2014 04:24 1,5 C 0,0 C 91 % 1019,1 hPa 0,0 l/m 0 min 0 min 0,0 UV-I 0 W/m 2,6 km/h (1 Bft)
23.02.2014 04:26 1,5 C 0,0 C 91 % 1019,1 hPa 0,0 l/m 0 min 0 min 0,0 UV-I 0 W/m 5,1 km/h (1 Bft)
23.02.2014 04:28 1,4 C 0,0 C 91 % 1019,1 hPa 0,0 l/m 0 min 0 min 0,0 UV-I 0 W/m 0,0 km/h (0 Bft)
23.02.2014 04:30 1,4 C 0,0 C 91 % 1019,1 hPa 0,0 l/m 0 min 0 min 0,0 UV-I 0 W/m 2,6 km/h (1 Bft)
23.02.2014 04:32 1,4 C 0,0 C 91 % 1019,0 hPa 0,0 l/m 0 min 0 min 0,0 UV-I 0 W/m 5,1 km/h (1 Bft)
23.02.2014 04:34 1,4 C 0,0 C 91 % 1019,0 hPa 0,0 l/m 0 min 0 min 0,0 UV-I 0 W/m 0,0 km/h (0 Bft)
23.02.2014 04:36 1,4 C -0,6 C 92 % 1019,0 hPa 0,0 l/m 0 min 0 min 0,0 UV-I 0 W/m 0,0 km/h (0 Bft)
23.02.2014 04:38 1,4 C -0,6 C 92 % 1019,1 hPa 0,0 l/m 0 min 0 min 0,0 UV-I 0 W/m 7,7 km/h (2 Bft)
23.02.2014 04:40 1,4 C 0,0 C 92 % 1019,1 hPa 0,0 l/m 0 min 0 min 0,0 UV-I 0 W/m 7,7 km/h (2 Bft)
23.02.2014 04:42 1,4 C 0,0 C 92 % 1019,1 hPa 0,0 l/m 0 min 0 min 0,0 UV-I 0 W/m 7,7 km/h (2 Bft)
23.02.2014 04:44 1,4 C -0,6 C 92 % 1019,1 hPa 0,0 l/m 0 min 0 min 0,0 UV-I 0 W/m 7,7 km/h (2 Bft)
23.02.2014 04:46 1,4 C -0,6 C 92 % 1019,1 hPa 0,0 l/m 0 min 0 min 0,0 UV-I 0 W/m 2,6 km/h (1 Bft)
23.02.2014 04:48 1,4 C -0,6 C 92 % 1019,1 hPa 0,0 l/m 0 min 0 min 0,0 UV-I 0 W/m 0,0 km/h (0 Bft)
23.02.2014 04:50 1,3 C -0,6 C 92 % 1019,1 hPa 0,0 l/m 0 min 0 min 0,0 UV-I 0 W/m 7,7 km/h (2 Bft)
23.02.2014 04:52 1,3 C -0,6 C 92 % 1019,1 hPa 0,0 l/m 0 min 0 min 0,0 UV-I 0 W/m 2,6 km/h (1 Bft)
23.02.2014 04:54 1,3 C -0,6 C 92 % 1019,1 hPa 0,0 l/m 0 min 0 min 0,0 UV-I 0 W/m 5,1 km/h (1 Bft)
23.02.2014 04:56 1,3 C -0,6 C 92 % 1019,1 hPa 0,0 l/m 0 min 0 min 0,0 UV-I 0 W/m 7,7 km/h (2 Bft)
23.02.2014 04:58 1,3 C -0,6 C 92 % 1019,1 hPa 0,0 l/m 0 min 0 min 0,0 UV-I 0 W/m 5,1 km/h (1 Bft)
23.02.2014 05:00 1,3 C -0,6 C 92 % 1019,1 hPa 0,0 l/m 0 min 0 min 0,0 UV-I 0 W/m 5,1 km/h (1 Bft)
23.02.2014 05:02 1,3 C -0,6 C 92 % 1019,1 hPa 0,0 l/m 0 min 0 min 0,0 UV-I 0 W/m 7,7 km/h (2 Bft)
23.02.2014 05:04 1,3 C -0,6 C 92 % 1019,1 hPa 0,0 l/m 0 min 0 min 0,0 UV-I 0 W/m 7,7 km/h (2 Bft)
23.02.2014 05:06 1,3 C 0,0 C 92 % 1019,1 hPa 0,0 l/m 0 min 0 min 0,0 UV-I 0 W/m 5,1 km/h (1 Bft)
23.02.2014 05:08 1,3 C -0,6 C 92 % 1019,2 hPa 0,0 l/m 0 min 0 min 0,0 UV-I 0 W/m 0,0 km/h (0 Bft)
23.02.2014 05:10 1,3 C 0,0 C 92 % 1019,1 hPa 0,0 l/m 0 min 0 min 0,0 UV-I 0 W/m 5,1 km/h (1 Bft)
23.02.2014 05:12 1,2 C 0,0 C 92 % 1019,1 hPa 0,0 l/m 0 min 0 min 0,0 UV-I 0 W/m 5,1 km/h (1 Bft)
23.02.2014 05:14 1,2 C -0,6 C 92 % 1019,2 hPa 0,0 l/m 0 min 0 min 0,0 UV-I 0 W/m 5,1 km/h (1 Bft)
23.02.2014 05:16 1,2 C 0,0 C 92 % 1019,2 hPa 0,0 l/m 0 min 0 min 0,0 UV-I 0 W/m 0,0 km/h (0 Bft)
23.02.2014 05:18 1,2 C -0,6 C 92 % 1019,1 hPa 0,0 l/m 0 min 0 min 0,0 UV-I 0 W/m 0,0 km/h (0 Bft)
23.02.2014 05:20 1,2 C -0,6 C 92 % 1019,1 hPa 0,0 l/m 0 min 0 min 0,0 UV-I 0 W/m 0,0 km/h (0 Bft)
23.02.2014 05:22 1,2 C -0,6 C 92 % 1019,1 hPa 0,0 l/m 0 min 0 min 0,0 UV-I 0 W/m 0,0 km/h (0 Bft)
23.02.2014 05:24 1,2 C -0,6 C 92 % 1019,1 hPa 0,0 l/m 0 min 0 min 0,0 UV-I 0 W/m 2,6 km/h (1 Bft)
23.02.2014 05:26 1,2 C -0,6 C 93 % 1019,2 hPa 0,0 l/m 0 min 0 min 0,0 UV-I 0 W/m 0,0 km/h (0 Bft)
23.02.2014 05:28 1,2 C -0,6 C 92 % 1019,1 hPa 0,0 l/m 0 min 0 min 0,0 UV-I 0 W/m 2,6 km/h (1 Bft)
23.02.2014 05:30 1,2 C -0,6 C 92 % 1019,1 hPa 0,0 l/m 0 min 0 min 0,0 UV-I 0 W/m 12,9 km/h (3 Bft)
23.02.2014 05:32 1,2 C -0,6 C 92 % 1019,1 hPa 0,0 l/m 0 min 0 min 0,0 UV-I 0 W/m 7,7 km/h (2 Bft)
23.02.2014 05:34 1,2 C 0,0 C 92 % 1019,1 hPa 0,0 l/m 0 min 0 min 0,0 UV-I 0 W/m 10,3 km/h (2 Bft)
23.02.2014 05:36 1,2 C 0,0 C 92 % 1019,1 hPa 0,0 l/m 0 min 0 min 0,0 UV-I 0 W/m 5,1 km/h (1 Bft)
23.02.2014 05:38 1,2 C 0,0 C 93 % 1019,1 hPa 0,0 l/m 0 min 0 min 0,0 UV-I 0 W/m 7,7 km/h (2 Bft)
23.02.2014 05:40 1,2 C -0,6 C 93 % 1019,1 hPa 0,0 l/m 0 min 0 min 0,0 UV-I 0 W/m 5,1 km/h (1 Bft)
23.02.2014 05:42 1,2 C -0,6 C 93 % 1019,1 hPa 0,0 l/m 0 min 0 min 0,0 UV-I 0 W/m 10,3 km/h (2 Bft)
23.02.2014 05:44 1,2 C 0,0 C 93 % 1019,1 hPa 0,0 l/m 0 min 0 min 0,0 UV-I 0 W/m 10,3 km/h (2 Bft)
23.02.2014 05:46 1,2 C 0,0 C 93 % 1019,1 hPa 0,0 l/m 0 min 0 min 0,0 UV-I 0 W/m 10,3 km/h (2 Bft)
23.02.2014 05:48 1,2 C 0,0 C 93 % 1019,1 hPa 0,0 l/m 0 min 0 min 0,0 UV-I 0 W/m 7,7 km/h (2 Bft)
23.02.2014 05:50 1,2 C 0,0 C 93 % 1019,1 hPa 0,0 l/m 0 min 0 min 0,0 UV-I 0 W/m 7,7 km/h (2 Bft)
23.02.2014 05:52 1,2 C 0,0 C 93 % 1019,1 hPa 0,0 l/m 0 min 0 min 0,0 UV-I 0 W/m 5,1 km/h (1 Bft)
23.02.2014 05:54 1,2 C 0,0 C 93 % 1019,1 hPa 0,0 l/m 0 min 0 min 0,0 UV-I 0 W/m 5,1 km/h (1 Bft)
23.02.2014 05:56 1,2 C -0,6 C 93 % 1019,1 hPa 0,0 l/m 0 min 0 min 0,0 UV-I 0 W/m 0,0 km/h (0 Bft)
23.02.2014 05:58 1,2 C -0,6 C 93 % 1019,1 hPa 0,0 l/m 0 min 0 min 0,0 UV-I 0 W/m 7,7 km/h (2 Bft)
23.02.2014 06:00 1,2 C -0,6 C 93 % 1019,1 hPa 0,0 l/m 0 min 0 min 0,0 UV-I 0 W/m 7,7 km/h (2 Bft)
23.02.2014 06:02 1,2 C -0,6 C 93 % 1019,0 hPa 0,0 l/m 0 min 0 min 0,0 UV-I 0 W/m 12,9 km/h (3 Bft)
23.02.2014 06:04 1,2 C -0,6 C 93 % 1019,0 hPa 0,0 l/m 0 min 0 min 0,0 UV-I 0 W/m 10,3 km/h (2 Bft)
23.02.2014 06:06 1,2 C -0,6 C 93 % 1019,1 hPa 0,0 l/m 0 min 0 min 0,0 UV-I 0 W/m 10,3 km/h (2 Bft)
23.02.2014 06:08 1,2 C -0,6 C 93 % 1019,0 hPa 0,0 l/m 0 min 0 min 0,0 UV-I 0 W/m 12,9 km/h (3 Bft)
23.02.2014 06:10 1,1 C -0,6 C 93 % 1019,1 hPa 0,0 l/m 0 min 0 min 0,0 UV-I 0 W/m 7,7 km/h (2 Bft)
23.02.2014 06:12 1,1 C -0,6 C 93 % 1019,0 hPa 0,0 l/m 0 min 0 min 0,0 UV-I 0 W/m 7,7 km/h (2 Bft)
23.02.2014 06:14 1,1 C -0,6 C 93 % 1019,0 hPa 0,0 l/m 0 min 0 min 0,0 UV-I 0 W/m 10,3 km/h (2 Bft)
23.02.2014 06:16 1,1 C -0,6 C 93 % 1019,0 hPa 0,0 l/m 0 min 0 min 0,0 UV-I 0 W/m 7,7 km/h (2 Bft)
23.02.2014 06:18 1,1 C -0,6 C 93 % 1019,0 hPa 0,0 l/m 0 min 0 min 0,0 UV-I 0 W/m 7,7 km/h (2 Bft)
23.02.2014 06:20 1,1 C -0,6 C 93 % 1019,0 hPa 0,0 l/m 0 min 0 min 0,0 UV-I 0 W/m 15,4 km/h (3 Bft)
23.02.2014 06:22 1,1 C -0,6 C 93 % 1019,0 hPa 0,0 l/m 0 min 0 min 0,0 UV-I 0 W/m 12,9 km/h (3 Bft)
23.02.2014 06:24 1,1 C -0,6 C 93 % 1019,0 hPa 0,0 l/m 0 min 0 min 0,0 UV-I 0 W/m 10,3 km/h (2 Bft)
23.02.2014 06:26 1,0 C -0,6 C 93 % 1019,0 hPa 0,0 l/m 0 min 0 min 0,0 UV-I 0 W/m 7,7 km/h (2 Bft)
23.02.2014 06:28 1,0 C -0,6 C 93 % 1019,0 hPa 0,0 l/m 0 min 0 min 0,0 UV-I 0 W/m 5,1 km/h (1 Bft)
23.02.2014 06:30 1,0 C -0,6 C 93 % 1019,0 hPa 0,0 l/m 0 min 0 min 0,0 UV-I 0 W/m 5,1 km/h (1 Bft)
23.02.2014 06:32 1,0 C -0,6 C 93 % 1019,0 hPa 0,0 l/m 0 min 0 min 0,0 UV-I 0 W/m 0,0 km/h (0 Bft)
23.02.2014 06:34 1,0 C -0,6 C 93 % 1019,0 hPa 0,0 l/m 0 min 0 min 0,0 UV-I 0 W/m 12,9 km/h (3 Bft)
23.02.2014 06:36 0,9 C -0,6 C 93 % 1019,0 hPa 0,0 l/m 0 min 0 min 0,0 UV-I 0 W/m 12,9 km/h (3 Bft)
23.02.2014 06:38 0,9 C -0,6 C 93 % 1019,0 hPa 0,0 l/m 0 min 0 min 0,0 UV-I 0 W/m 10,3 km/h (2 Bft)
23.02.2014 06:40 0,9 C -0,6 C 93 % 1019,1 hPa 0,0 l/m 0 min 0 min 0,0 UV-I 0 W/m 10,3 km/h (2 Bft)
23.02.2014 06:42 0,9 C -0,6 C 93 % 1019,1 hPa 0,0 l/m 0 min 0 min 0,0 UV-I 0 W/m 2,6 km/h (1 Bft)
23.02.2014 06:44 0,9 C -0,6 C 93 % 1019,1 hPa 0,0 l/m 0 min 0 min 0,0 UV-I 0 W/m 5,1 km/h (1 Bft)
23.02.2014 06:46 0,9 C -0,6 C 93 % 1019,1 hPa 0,0 l/m 0 min 0 min 0,0 UV-I 0 W/m 5,1 km/h (1 Bft)
23.02.2014 06:48 0,9 C -0,6 C 93 % 1019,1 hPa 0,0 l/m 0 min 0 min 0,0 UV-I 0 W/m 5,1 km/h (1 Bft)
23.02.2014 06:50 0,9 C -0,6 C 93 % 1019,1 hPa 0,0 l/m 0 min 0 min 0,0 UV-I 0 W/m 7,7 km/h (2 Bft)
23.02.2014 06:52 0,9 C -0,6 C 93 % 1019,1 hPa 0,0 l/m 0 min 0 min 0,0 UV-I 0 W/m 10,3 km/h (2 Bft)
23.02.2014 06:54 0,9 C -0,6 C 93 % 1019,1 hPa 0,0 l/m 0 min 0 min 0,0 UV-I 0 W/m 10,3 km/h (2 Bft)
23.02.2014 06:56 0,9 C -0,6 C 93 % 1019,1 hPa 0,0 l/m 0 min 0 min 0,0 UV-I 0 W/m 15,4 km/h (3 Bft)
23.02.2014 06:58 0,8 C -0,6 C 93 % 1019,1 hPa 0,0 l/m 0 min 0 min 0,0 UV-I 0 W/m 7,7 km/h (2 Bft)
23.02.2014 07:00 0,8 C -0,6 C 93 % 1019,1 hPa 0,0 l/m 0 min 0 min 0,0 UV-I 0 W/m 7,7 km/h (2 Bft)
23.02.2014 07:02 0,8 C -0,6 C 93 % 1019,1 hPa 0,0 l/m 0 min 0 min 0,0 UV-I 0 W/m 7,7 km/h (2 Bft)
23.02.2014 07:04 0,8 C -0,6 C 93 % 1019,1 hPa 0,0 l/m 0 min 0 min 0,0 UV-I 0 W/m 2,6 km/h (1 Bft)
23.02.2014 07:06 0,8 C -0,6 C 93 % 1019,1 hPa 0,0 l/m 0 min 0 min 0,0 UV-I 0 W/m 0,0 km/h (0 Bft)
23.02.2014 07:08 0,8 C -0,6 C 93 % 1019,2 hPa 0,0 l/m 0 min 0 min 0,0 UV-I 0 W/m 12,9 km/h (3 Bft)
23.02.2014 07:10 0,8 C -0,6 C 93 % 1019,1 hPa 0,0 l/m 0 min 0 min 0,0 UV-I 0 W/m 15,4 km/h (3 Bft)
23.02.2014 07:12 0,8 C -0,6 C 93 % 1019,2 hPa 0,0 l/m 0 min 0 min 0,0 UV-I 0 W/m 12,9 km/h (3 Bft)
23.02.2014 07:14 0,8 C -0,6 C 93 % 1019,1 hPa 0,0 l/m 0 min 0 min 0,0 UV-I 0 W/m 18,0 km/h (3 Bft)
23.02.2014 07:16 0,8 C -0,6 C 93 % 1019,1 hPa 0,0 l/m 0 min 0 min 0,0 UV-I 0 W/m 7,7 km/h (2 Bft)
23.02.2014 07:18 0,8 C -0,6 C 93 % 1019,2 hPa 0,0 l/m 0 min 0 min 0,0 UV-I 0 W/m 15,4 km/h (3 Bft)
23.02.2014 07:20 0,8 C -0,6 C 94 % 1019,2 hPa 0,0 l/m 0 min 0 min 0,0 UV-I 0 W/m 12,9 km/h (3 Bft)
23.02.2014 07:22 0,8 C -0,6 C 93 % 1019,2 hPa 0,0 l/m 0 min 0 min 0,0 UV-I 0 W/m 7,7 km/h (2 Bft)
23.02.2014 07:24 0,8 C -0,6 C 93 % 1019,2 hPa 0,0 l/m 0 min 0 min 0,0 UV-I 0 W/m 7,7 km/h (2 Bft)
23.02.2014 07:26 0,7 C -0,6 C 93 % 1019,2 hPa 0,0 l/m 0 min 0 min 0,0 UV-I 0 W/m 7,7 km/h (2 Bft)
23.02.2014 07:28 0,7 C -0,6 C 93 % 1019,2 hPa 0,0 l/m 0 min 0 min 0,0 UV-I 5 W/m 7,7 km/h (2 Bft)
23.02.2014 07:30 0,7 C -0,6 C 93 % 1019,3 hPa 0,0 l/m 0 min 0 min 0,0 UV-I 5 W/m 7,7 km/h (2 Bft)
23.02.2014 07:32 0,7 C -0,6 C 93 % 1019,3 hPa 0,0 l/m 0 min 0 min 0,0 UV-I 5 W/m 10,3 km/h (2 Bft)
23.02.2014 07:34 0,7 C -0,6 C 93 % 1019,3 hPa 0,0 l/m 0 min 0 min 0,0 UV-I 7 W/m 2,6 km/h (1 Bft)
23.02.2014 07:36 0,7 C -0,6 C 93 % 1019,3 hPa 0,0 l/m 0 min 0 min 0,0 UV-I 7 W/m 5,1 km/h (1 Bft)
23.02.2014 07:38 0,7 C -0,6 C 93 % 1019,4 hPa 0,0 l/m 0 min 0 min 0,0 UV-I 9 W/m 0,0 km/h (0 Bft)
23.02.2014 07:40 0,7 C -0,6 C 93 % 1019,4 hPa 0,0 l/m 0 min 0 min 0,0 UV-I 9 W/m 0,0 km/h (0 Bft)
23.02.2014 07:42 0,7 C -0,6 C 93 % 1019,5 hPa 0,0 l/m 0 min 0 min 0,0 UV-I 11 W/m 7,7 km/h (2 Bft)
23.02.2014 07:44 0,7 C -0,6 C 93 % 1019,5 hPa 0,0 l/m 0 min 0 min 0,0 UV-I 11 W/m 7,7 km/h (2 Bft)
23.02.2014 07:46 0,7 C -0,6 C 94 % 1019,6 hPa 0,0 l/m 0 min 0 min 0,0 UV-I 12 W/m 7,7 km/h (2 Bft)
23.02.2014 07:48 0,7 C -0,6 C 94 % 1019,5 hPa 0,0 l/m 0 min 0 min 0,0 UV-I 14 W/m 10,3 km/h (2 Bft)
23.02.2014 07:50 0,7 C -0,6 C 94 % 1019,6 hPa 0,0 l/m 0 min 0 min 0,0 UV-I 14 W/m 7,7 km/h (2 Bft)
23.02.2014 07:52 0,7 C -0,6 C 94 % 1019,6 hPa 0,0 l/m 0 min 0 min 0,0 UV-I 16 W/m 5,1 km/h (1 Bft)
23.02.2014 07:54 0,7 C -0,6 C 94 % 1019,6 hPa 0,0 l/m 0 min 0 min 0,0 UV-I 16 W/m 0,0 km/h (0 Bft)
23.02.2014 07:56 0,7 C -0,6 C 94 % 1019,5 hPa 0,0 l/m 0 min 0 min 0,0 UV-I 18 W/m 7,7 km/h (2 Bft)
23.02.2014 07:58 0,6 C -0,6 C 94 % 1019,6 hPa 0,0 l/m 0 min 0 min 0,0 UV-I 18 W/m 7,7 km/h (2 Bft)
23.02.2014 08:00 0,6 C -0,6 C 94 % 1019,6 hPa 0,0 l/m 0 min 0 min 0,0 UV-I 19 W/m 2,6 km/h (1 Bft)
23.02.2014 08:02 0,7 C -0,6 C 94 % 1019,5 hPa 0,0 l/m 0 min 0 min 0,0 UV-I 21 W/m 0,0 km/h (0 Bft)
23.02.2014 08:04 0,7 C -0,6 C 94 % 1019,6 hPa 0,0 l/m 0 min 0 min 0,0 UV-I 21 W/m 5,1 km/h (1 Bft)
23.02.2014 08:06 0,7 C -0,6 C 94 % 1019,6 hPa 0,0 l/m 0 min 0 min 0,0 UV-I 23 W/m 7,7 km/h (2 Bft)
23.02.2014 08:08 0,7 C -0,6 C 94 % 1019,6 hPa 0,0 l/m 0 min 0 min 0,0 UV-I 23 W/m 7,7 km/h (2 Bft)
23.02.2014 08:10 0,7 C -0,6 C 94 % 1019,6 hPa 0,0 l/m 0 min 0 min 0,0 UV-I 25 W/m 7,7 km/h (2 Bft)
23.02.2014 08:12 0,7 C -0,6 C 94 % 1019,7 hPa 0,0 l/m 0 min 0 min 0,0 UV-I 25 W/m 7,7 km/h (2 Bft)
23.02.2014 08:14 0,7 C 0,0 C 94 % 1019,7 hPa 0,0 l/m 0 min 0 min 0,0 UV-I 26 W/m 12,9 km/h (3 Bft)
23.02.2014 08:16 0,7 C 0,0 C 94 % 1019,7 hPa 0,0 l/m 0 min 0 min 0,0 UV-I 26 W/m 10,3 km/h (2 Bft)
23.02.2014 08:18 0,7 C 0,0 C 94 % 1019,8 hPa 0,0 l/m 0 min 0 min 0,0 UV-I 28 W/m 5,1 km/h (1 Bft)
23.02.2014 08:20 0,8 C 0,0 C 94 % 1019,7 hPa 0,0 l/m 0 min 0 min 0,0 UV-I 28 W/m 10,3 km/h (2 Bft)
23.02.2014 08:22 0,8 C 0,0 C 94 % 1019,8 hPa 0,0 l/m 0 min 0 min 0,0 UV-I 30 W/m 12,9 km/h (3 Bft)
23.02.2014 08:24 0,8 C 0,0 C 94 % 1019,7 hPa 0,0 l/m 0 min 0 min 0,0 UV-I 32 W/m 15,4 km/h (3 Bft)
23.02.2014 08:26 0,9 C 0,0 C 94 % 1019,7 hPa 0,0 l/m 0 min 0 min 0,0 UV-I 32 W/m 15,4 km/h (3 Bft)
23.02.2014 08:28 0,9 C 0,0 C 94 % 1019,8 hPa 0,0 l/m 0 min 0 min 0,0 UV-I 33 W/m 12,9 km/h (3 Bft)
23.02.2014 08:30 0,9 C 0,6 C 94 % 1019,8 hPa 0,0 l/m 0 min 0 min 0,0 UV-I 35 W/m 15,4 km/h (3 Bft)
23.02.2014 08:32 1,0 C 0,6 C 94 % 1019,8 hPa 0,0 l/m 0 min 0 min 0,0 UV-I 35 W/m 12,9 km/h (3 Bft)
23.02.2014 08:34 1,1 C 0,6 C 94 % 1019,8 hPa 0,0 l/m 0 min 0 min 0,0 UV-I 37 W/m 12,9 km/h (3 Bft)
23.02.2014 08:36 1,1 C 0,6 C 94 % 1019,8 hPa 0,0 l/m 0 min 0 min 0,0 UV-I 39 W/m 15,4 km/h (3 Bft)
23.02.2014 08:38 1,2 C 0,6 C 94 % 1019,8 hPa 0,0 l/m 0 min 0 min 0,0 UV-I 47 W/m 12,9 km/h (3 Bft)
23.02.2014 08:40 1,2 C 0,6 C 94 % 1019,8 hPa 0,0 l/m 2 min 0 min 0,0 UV-I 100 W/m 12,9 km/h (3 Bft)
23.02.2014 08:42 1,2 C 0,6 C 94 % 1019,8 hPa 0,0 l/m 2 min 0 min 0,0 UV-I 113 W/m 15,4 km/h (3 Bft)
23.02.2014 08:44 1,3 C 0,6 C 94 % 1019,9 hPa 0,0 l/m 2 min 0 min 0,0 UV-I 116 W/m 12,9 km/h (3 Bft)
23.02.2014 08:46 1,4 C 1,1 C 94 % 1019,8 hPa 0,0 l/m 2 min 0 min 0,0 UV-I 125 W/m 15,4 km/h (3 Bft)
23.02.2014 08:48 1,4 C 1,1 C 94 % 1019,8 hPa 0,0 l/m 2 min 0 min 0,0 UV-I 128 W/m 10,3 km/h (2 Bft)
23.02.2014 08:50 1,6 C 1,1 C 95 % 1019,8 hPa 0,0 l/m 2 min 0 min 0,0 UV-I 132 W/m 12,9 km/h (3 Bft)
23.02.2014 08:52 1,7 C 1,1 C 94 % 1019,8 hPa 0,0 l/m 2 min 0 min 0,0 UV-I 139 W/m 12,9 km/h (3 Bft)
23.02.2014 08:54 1,8 C 1,1 C 94 % 1019,8 hPa 0,0 l/m 2 min 0 min 0,0 UV-I 142 W/m 10,3 km/h (2 Bft)
23.02.2014 08:56 1,9 C 1,1 C 95 % 1019,8 hPa 0,0 l/m 2 min 0 min 0,0 UV-I 144 W/m 12,9 km/h (3 Bft)
23.02.2014 08:58 2,0 C 1,1 C 94 % 1019,8 hPa 0,0 l/m 2 min 0 min 0,0 UV-I 144 W/m 15,4 km/h (3 Bft)
23.02.2014 09:00 2,1 C 1,1 C 94 % 1019,9 hPa 0,0 l/m 2 min 0 min 0,0 UV-I 149 W/m 15,4 km/h (3 Bft)
23.02.2014 09:02 2,2 C 1,1 C 95 % 1019,9 hPa 0,0 l/m 2 min 0 min 0,0 UV-I 149 W/m 12,9 km/h (3 Bft)
23.02.2014 09:04 2,3 C 1,1 C 94 % 1019,8 hPa 0,0 l/m 2 min 0 min 0,0 UV-I 149 W/m 12,9 km/h (3 Bft)
23.02.2014 09:06 2,4 C 1,7 C 94 % 1019,8 hPa 0,0 l/m 2 min 0 min 0,0 UV-I 158 W/m 12,9 km/h (3 Bft)
23.02.2014 09:08 2,5 C 1,7 C 94 % 1019,8 hPa 0,0 l/m 2 min 0 min 0,0 UV-I 165 W/m 7,7 km/h (2 Bft)
23.02.2014 09:10 2,6 C 1,7 C 94 % 1019,8 hPa 0,0 l/m 2 min 0 min 0,0 UV-I 169 W/m 12,9 km/h (3 Bft)
23.02.2014 09:12 2,7 C 1,7 C 94 % 1019,8 hPa 0,0 l/m 2 min 0 min 0,0 UV-I 171 W/m 10,3 km/h (2 Bft)
23.02.2014 09:14 2,8 C 1,7 C 94 % 1019,8 hPa 0,0 l/m 2 min 0 min 0,0 UV-I 172 W/m 12,9 km/h (3 Bft)
23.02.2014 09:16 2,9 C 1,7 C 94 % 1019,8 hPa 0,0 l/m 2 min 0 min 0,0 UV-I 172 W/m 12,9 km/h (3 Bft)
23.02.2014 09:18 3,0 C 1,7 C 94 % 1019,8 hPa 0,0 l/m 2 min 0 min 0,0 UV-I 178 W/m 12,9 km/h (3 Bft)
23.02.2014 09:20 3,1 C 2,2 C 93 % 1019,9 hPa 0,0 l/m 2 min 0 min 0,0 UV-I 185 W/m 15,4 km/h (3 Bft)
23.02.2014 09:22 3,2 C 2,2 C 93 % 1019,8 hPa 0,0 l/m 2 min 0 min 0,0 UV-I 185 W/m 7,7 km/h (2 Bft)
23.02.2014 09:24 3,4 C 2,2 C 93 % 1019,8 hPa 0,0 l/m 2 min 0 min 0,0 UV-I 188 W/m 12,9 km/h (3 Bft)
23.02.2014 09:26 3,6 C 2,2 C 92 % 1019,8 hPa 0,0 l/m 2 min 0 min 0,0 UV-I 181 W/m 12,9 km/h (3 Bft)
23.02.2014 09:28 3,7 C 2,2 C 92 % 1019,9 hPa 0,0 l/m 2 min 0 min 0,0 UV-I 185 W/m 10,3 km/h (2 Bft)
23.02.2014 09:30 3,8 C 2,2 C 92 % 1019,8 hPa 0,0 l/m 2 min 0 min 0,0 UV-I 185 W/m 12,9 km/h (3 Bft)
23.02.2014 09:32 4,0 C 2,2 C 92 % 1019,8 hPa 0,0 l/m 2 min 0 min 0,0 UV-I 193 W/m 15,4 km/h (3 Bft)
23.02.2014 09:34 4,1 C 2,8 C 91 % 1019,8 hPa 0,0 l/m 2 min 0 min 0,0 UV-I 206 W/m 20,6 km/h (4 Bft)
23.02.2014 09:36 4,3 C 2,8 C 90 % 1019,8 hPa 0,0 l/m 2 min 0 min 0,0 UV-I 207 W/m 15,4 km/h (3 Bft)
23.02.2014 09:38 4,4 C 2,8 C 90 % 1019,8 hPa 0,0 l/m 2 min 0 min 0,0 UV-I 216 W/m 15,4 km/h (3 Bft)
23.02.2014 09:40 4,6 C 2,8 C 90 % 1019,8 hPa 0,0 l/m 2 min 0 min 0,0 UV-I 225 W/m 15,4 km/h (3 Bft)
23.02.2014 09:42 4,7 C 3,3 C 89 % 1019,8 hPa 0,0 l/m 2 min 0 min 0,0 UV-I 225 W/m 20,6 km/h (4 Bft)
23.02.2014 09:44 4,8 C 3,3 C 89 % 1019,8 hPa 0,0 l/m 2 min 0 min 0,0 UV-I 230 W/m 20,6 km/h (4 Bft)
23.02.2014 09:46 4,9 C 3,3 C 88 % 1019,8 hPa 0,0 l/m 2 min 0 min 0,0 UV-I 246 W/m 7,7 km/h (2 Bft)
23.02.2014 09:48 5,1 C 3,3 C 88 % 1019,8 hPa 0,0 l/m 2 min 0 min 0,0 UV-I 250 W/m 15,4 km/h (3 Bft)
23.02.2014 09:50 5,2 C 3,3 C 87 % 1019,9 hPa 0,0 l/m 2 min 0 min 0,0 UV-I 248 W/m 15,4 km/h (3 Bft)
23.02.2014 09:52 5,3 C 3,3 C 87 % 1019,9 hPa 0,0 l/m 2 min 0 min 0,0 UV-I 250 W/m 18,0 km/h (3 Bft)
23.02.2014 09:54 5,4 C 3,9 C 87 % 1019,9 hPa 0,0 l/m 2 min 0 min 0,0 UV-I 243 W/m 20,6 km/h (4 Bft)
23.02.2014 09:56 5,6 C 3,9 C 86 % 1019,9 hPa 0,0 l/m 2 min 0 min 0,0 UV-I 251 W/m 12,9 km/h (3 Bft)
23.02.2014 09:58 5,7 C 3,9 C 86 % 1019,9 hPa 0,0 l/m 2 min 0 min 0,0 UV-I 257 W/m 20,6 km/h (4 Bft)
23.02.2014 10:00 5,8 C 3,9 C 85 % 1019,9 hPa 0,0 l/m 2 min 0 min 0,0 UV-I 267 W/m 15,4 km/h (3 Bft)
23.02.2014 10:02 5,9 C 3,9 C 85 % 1019,9 hPa 0,0 l/m 2 min 0 min 0,0 UV-I 251 W/m 10,3 km/h (2 Bft)
23.02.2014 10:04 6,1 C 4,4 C 84 % 1019,9 hPa 0,0 l/m 2 min 0 min 0,0 UV-I 255 W/m 12,9 km/h (3 Bft)
23.02.2014 10:06 6,2 C 4,4 C 84 % 1019,9 hPa 0,0 l/m 2 min 0 min 0,0 UV-I 264 W/m 10,3 km/h (2 Bft)
23.02.2014 10:08 6,3 C 4,4 C 83 % 1019,9 hPa 0,0 l/m 2 min 0 min 0,0 UV-I 281 W/m 25,7 km/h (4 Bft)
23.02.2014 10:10 6,4 C 4,4 C 83 % 1019,9 hPa 0,0 l/m 2 min 0 min 0,0 UV-I 278 W/m 15,4 km/h (3 Bft)
23.02.2014 10:12 6,4 C 4,4 C 83 % 1019,9 hPa 0,0 l/m 2 min 0 min 0,0 UV-I 288 W/m 15,4 km/h (3 Bft)
23.02.2014 10:14 6,5 C 5,0 C 83 % 1019,9 hPa 0,0 l/m 2 min 0 min 0,0 UV-I 297 W/m 18,0 km/h (3 Bft)
23.02.2014 10:16 6,6 C 5,0 C 82 % 1019,9 hPa 0,0 l/m 2 min 0 min 0,0 UV-I 265 W/m 28,3 km/h (4 Bft)
23.02.2014 10:18 6,7 C 5,0 C 82 % 1019,8 hPa 0,0 l/m 2 min 0 min 0,0 UV-I 285 W/m 15,4 km/h (3 Bft)
23.02.2014 10:20 6,8 C 5,0 C 82 % 1019,8 hPa 0,0 l/m 2 min 0 min 0,0 UV-I 304 W/m 12,9 km/h (3 Bft)
23.02.2014 10:22 6,9 C 5,0 C 82 % 1019,8 hPa 0,0 l/m 2 min 0 min 0,0 UV-I 308 W/m 23,2 km/h (4 Bft)
23.02.2014 10:24 7,1 C 5,6 C 81 % 1019,8 hPa 0,0 l/m 2 min 0 min 0,0 UV-I 297 W/m 20,6 km/h (4 Bft)
23.02.2014 10:26 7,2 C 5,6 C 80 % 1019,9 hPa 0,0 l/m 2 min 0 min 0,0 UV-I 313 W/m 23,2 km/h (4 Bft)
23.02.2014 10:28 7,3 C 5,6 C 80 % 1019,9 hPa 0,0 l/m 2 min 0 min 0,0 UV-I 322 W/m 15,4 km/h (3 Bft)
23.02.2014 10:30 7,5 C 5,6 C 80 % 1019,9 hPa 0,0 l/m 2 min 0 min 0,0 UV-I 322 W/m 12,9 km/h (3 Bft)
23.02.2014 10:32 7,6 C 5,6 C 80 % 1019,8 hPa 0,0 l/m 2 min 0 min 0,0 UV-I 316 W/m 10,3 km/h (2 Bft)
23.02.2014 10:34 7,8 C 5,6 C 79 % 1019,8 hPa 0,0 l/m 2 min 0 min 0,0 UV-I 323 W/m 10,3 km/h (2 Bft)
23.02.2014 10:36 7,9 C 6,1 C 78 % 1019,8 hPa 0,0 l/m 2 min 0 min 0,0 UV-I 322 W/m 23,2 km/h (4 Bft)
23.02.2014 10:38 7,9 C 6,1 C 77 % 1019,8 hPa 0,0 l/m 2 min 0 min 0,0 UV-I 330 W/m 20,6 km/h (4 Bft)
23.02.2014 10:40 8,0 C 6,1 C 77 % 1019,8 hPa 0,0 l/m 2 min 0 min 0,0 UV-I 327 W/m 18,0 km/h (3 Bft)
23.02.2014 10:42 8,1 C 6,1 C 76 % 1019,8 hPa 0,0 l/m 2 min 0 min 0,0 UV-I 323 W/m 25,7 km/h (4 Bft)
23.02.2014 10:44 8,1 C 6,1 C 76 % 1019,8 hPa 0,0 l/m 2 min 0 min 0,0 UV-I 323 W/m 25,7 km/h (4 Bft)
23.02.2014 10:46 8,1 C 6,1 C 76 % 1019,8 hPa 0,0 l/m 2 min 0 min 0,0 UV-I 325 W/m 20,6 km/h (4 Bft)
23.02.2014 10:48 8,1 C 6,1 C 76 % 1019,8 hPa 0,0 l/m 2 min 0 min 0,0 UV-I 339 W/m 15,4 km/h (3 Bft)
23.02.2014 10:50 8,2 C 6,1 C 76 % 1019,8 hPa 0,0 l/m 2 min 0 min 0,5 UV-I 343 W/m 25,7 km/h (4 Bft)
23.02.2014 10:52 8,3 C 6,7 C 75 % 1019,8 hPa 0,0 l/m 2 min 0 min 0,5 UV-I 345 W/m 25,7 km/h (4 Bft)
23.02.2014 10:54 8,3 C 6,7 C 76 % 1019,8 hPa 0,0 l/m 2 min 0 min 0,5 UV-I 341 W/m 20,6 km/h (4 Bft)
23.02.2014 10:56 8,4 C 6,7 C 75 % 1019,8 hPa 0,0 l/m 2 min 0 min 0,5 UV-I 350 W/m 28,3 km/h (4 Bft)
23.02.2014 10:58 8,4 C 6,7 C 75 % 1019,8 hPa 0,0 l/m 2 min 0 min 0,5 UV-I 346 W/m 15,4 km/h (3 Bft)
23.02.2014 11:00 8,6 C 6,7 C 76 % 1019,8 hPa 0,0 l/m 2 min 0 min 0,5 UV-I 343 W/m 18,0 km/h (3 Bft)
23.02.2014 11:02 8,7 C 6,7 C 75 % 1019,8 hPa 0,0 l/m 2 min 0 min 0,6 UV-I 352 W/m 18,0 km/h (3 Bft)
23.02.2014 11:04 8,8 C 6,7 C 75 % 1019,8 hPa 0,0 l/m 2 min 0 min 0,6 UV-I 364 W/m 20,6 km/h (4 Bft)
23.02.2014 11:06 8,9 C 7,2 C 74 % 1019,8 hPa 0,0 l/m 2 min 0 min 0,6 UV-I 380 W/m 28,3 km/h (4 Bft)
23.02.2014 11:08 8,9 C 7,2 C 74 % 1019,8 hPa 0,0 l/m 2 min 0 min 0,6 UV-I 357 W/m 25,7 km/h (4 Bft)
23.02.2014 11:10 8,9 C 7,2 C 73 % 1019,8 hPa 0,0 l/m 2 min 0 min 0,6 UV-I 385 W/m 25,7 km/h (4 Bft)
23.02.2014 11:12 9,1 C 7,2 C 74 % 1019,8 hPa 0,0 l/m 2 min 0 min 0,7 UV-I 390 W/m 23,2 km/h (4 Bft)
23.02.2014 11:14 9,1 C 7,2 C 74 % 1019,8 hPa 0,0 l/m 2 min 0 min 0,7 UV-I 378 W/m 18,0 km/h (3 Bft)
23.02.2014 11:16 9,2 C 7,2 C 73 % 1019,8 hPa 0,0 l/m 2 min 0 min 0,7 UV-I 387 W/m 20,6 km/h (4 Bft)
23.02.2014 11:18 9,3 C 7,2 C 73 % 1019,8 hPa 0,0 l/m 2 min 0 min 0,7 UV-I 390 W/m 12,9 km/h (3 Bft)
23.02.2014 11:20 9,3 C 7,8 C 72 % 1019,9 hPa 0,0 l/m 2 min 0 min 0,7 UV-I 392 W/m 7,7 km/h (2 Bft)
23.02.2014 11:22 9,4 C 7,8 C 73 % 1019,8 hPa 0,0 l/m 2 min 0 min 0,7 UV-I 404 W/m 15,4 km/h (3 Bft)
23.02.2014 11:24 9,6 C 7,8 C 73 % 1019,8 hPa 0,0 l/m 2 min 0 min 0,8 UV-I 415 W/m 20,6 km/h (4 Bft)
23.02.2014 11:26 9,7 C 7,8 C 72 % 1019,8 hPa 0,0 l/m 2 min 0 min 0,8 UV-I 417 W/m 18,0 km/h (3 Bft)
23.02.2014 11:28 9,7 C 7,8 C 72 % 1019,8 hPa 0,0 l/m 2 min 0 min 0,7 UV-I 359 W/m 12,9 km/h (3 Bft)
23.02.2014 11:30 9,9 C 8,3 C 72 % 1019,7 hPa 0,0 l/m 2 min 0 min 0,8 UV-I 450 W/m 25,7 km/h (4 Bft)
23.02.2014 11:32 9,9 C 8,3 C 71 % 1019,8 hPa 0,0 l/m 2 min 0 min 0,5 UV-I 450 W/m 10,3 km/h (2 Bft)
23.02.2014 11:34 9,9 C 8,3 C 71 % 1019,7 hPa 0,0 l/m 0 min 0 min 0,8 UV-I 206 W/m 15,4 km/h (3 Bft)
23.02.2014 11:36 10,0 C 8,3 C 71 % 1019,7 hPa 0,0 l/m 2 min 0 min 0,9 UV-I 499 W/m 15,4 km/h (3 Bft)
23.02.2014 11:38 10,0 C 8,3 C 71 % 1019,8 hPa 0,0 l/m 2 min 0 min 0,8 UV-I 459 W/m 23,2 km/h (4 Bft)
23.02.2014 11:40 10,0 C 8,3 C 71 % 1019,8 hPa 0,0 l/m 0 min 0 min 0,5 UV-I 144 W/m 12,9 km/h (3 Bft)
23.02.2014 11:42 9,9 C 8,3 C 70 % 1019,7 hPa 0,0 l/m 2 min 0 min 0,6 UV-I 343 W/m 23,2 km/h (4 Bft)
23.02.2014 11:44 9,9 C 8,3 C 70 % 1019,7 hPa 0,0 l/m 0 min 0 min 0,5 UV-I 237 W/m 33,5 km/h (5 Bft)
23.02.2014 11:46 9,7 C 8,3 C 71 % 1019,7 hPa 0,0 l/m 2 min 0 min 0,8 UV-I 267 W/m 15,4 km/h (3 Bft)
23.02.2014 11:48 9,7 C 8,3 C 72 % 1019,7 hPa 0,0 l/m 0 min 0 min 0,5 UV-I 225 W/m 23,2 km/h (4 Bft)
23.02.2014 11:50 9,8 C 8,3 C 72 % 1019,7 hPa 0,0 l/m 0 min 0 min 0,6 UV-I 246 W/m 25,7 km/h (4 Bft)
23.02.2014 11:52 9,9 C 8,3 C 72 % 1019,8 hPa 0,0 l/m 0 min 0 min 0,6 UV-I 246 W/m 20,6 km/h (4 Bft)
23.02.2014 11:54 9,9 C 8,3 C 71 % 1019,7 hPa 0,0 l/m 2 min 0 min 0,6 UV-I 503 W/m 12,9 km/h (3 Bft)
23.02.2014 11:56 10,1 C 8,9 C 72 % 1019,7 hPa 0,0 l/m 2 min 0 min 0,5 UV-I 503 W/m 15,4 km/h (3 Bft)
23.02.2014 11:58 10,2 C 8,9 C 71 % 1019,7 hPa 0,0 l/m 2 min 0 min 0,6 UV-I 390 W/m 15,4 km/h (3 Bft)
23.02.2014 12:00 10,4 C 9,4 C 72 % 1019,7 hPa 0,0 l/m 2 min 0 min 0,6 UV-I 348 W/m 18,0 km/h (3 Bft)
23.02.2014 12:02 10,4 C 9,4 C 71 % 1019,7 hPa 0,0 l/m 2 min 0 min 0,5 UV-I 311 W/m 10,3 km/h (2 Bft)
23.02.2014 12:04 10,5 C 9,4 C 71 % 1019,7 hPa 0,0 l/m 0 min 0 min 0,5 UV-I 223 W/m 15,4 km/h (3 Bft)
23.02.2014 12:06 10,4 C 9,4 C 71 % 1019,6 hPa 0,0 l/m 0 min 0 min 0,5 UV-I 213 W/m 25,7 km/h (4 Bft)
23.02.2014 12:08 10,3 C 9,4 C 71 % 1019,7 hPa 0,0 l/m 0 min 0 min 0,5 UV-I 229 W/m 20,6 km/h (4 Bft)
23.02.2014 12:10 10,2 C 8,9 C 71 % 1019,7 hPa 0,0 l/m 0 min 0 min 0,5 UV-I 258 W/m 25,7 km/h (4 Bft)
23.02.2014 12:12 10,1 C 9,4 C 72 % 1019,7 hPa 0,0 l/m 2 min 0 min 0,6 UV-I 276 W/m 20,6 km/h (4 Bft)
23.02.2014 12:14 10,1 C 9,4 C 72 % 1019,7 hPa 0,0 l/m 2 min 0 min 0,6 UV-I 288 W/m 7,7 km/h (2 Bft)
23.02.2014 12:16 10,1 C 9,4 C 72 % 1019,7 hPa 0,0 l/m 2 min 0 min 0,6 UV-I 279 W/m 28,3 km/h (4 Bft)
23.02.2014 12:18 10,1 C 9,4 C 72 % 1019,7 hPa 0,0 l/m 2 min 0 min 0,6 UV-I 323 W/m 15,4 km/h (3 Bft)
23.02.2014 12:20 10,2 C 9,4 C 72 % 1019,7 hPa 0,0 l/m 2 min 0 min 0,6 UV-I 287 W/m 18,0 km/h (3 Bft)
23.02.2014 12:22 10,2 C 9,4 C 72 % 1019,7 hPa 0,0 l/m 2 min 0 min 0,6 UV-I 292 W/m 20,6 km/h (4 Bft)
23.02.2014 12:24 10,3 C 9,4 C 72 % 1019,6 hPa 0,0 l/m 2 min 0 min 0,6 UV-I 292 W/m 23,2 km/h (4 Bft)
23.02.2014 12:26 10,2 C 9,4 C 71 % 1019,6 hPa 0,0 l/m 0 min 0 min 0,5 UV-I 218 W/m 20,6 km/h (4 Bft)
23.02.2014 12:28 10,1 C 8,9 C 72 % 1019,7 hPa 0,0 l/m 2 min 0 min 0,5 UV-I 290 W/m 25,7 km/h (4 Bft)
23.02.2014 12:30 10,1 C 9,4 C 72 % 1019,6 hPa 0,0 l/m 2 min 0 min 0,5 UV-I 290 W/m 18,0 km/h (3 Bft)
23.02.2014 12:32 10,2 C 9,4 C 73 % 1019,6 hPa 0,0 l/m 0 min 0 min 0,5 UV-I 225 W/m 18,0 km/h (3 Bft)
23.02.2014 12:34 10,2 C 9,4 C 72 % 1019,6 hPa 0,0 l/m 0 min 0 min 0,6 UV-I 225 W/m 25,7 km/h (4 Bft)
23.02.2014 12:36 10,3 C 9,4 C 73 % 1019,6 hPa 0,0 l/m 0 min 0 min 0,6 UV-I 220 W/m 23,2 km/h (4 Bft)
23.02.2014 12:38 10,3 C 9,4 C 72 % 1019,6 hPa 0,0 l/m 0 min 0 min 0,6 UV-I 153 W/m 20,6 km/h (4 Bft)
23.02.2014 12:40 10,2 C 8,9 C 72 % 1019,4 hPa 0,0 l/m 0 min 0 min 0,6 UV-I 172 W/m 25,7 km/h (4 Bft)
23.02.2014 12:42 10,2 C 8,9 C 72 % 1019,5 hPa 0,0 l/m 0 min 0 min 0,8 UV-I 186 W/m 23,2 km/h (4 Bft)
23.02.2014 12:44 10,2 C 9,4 C 72 % 1019,4 hPa 0,0 l/m 2 min 0 min 0,6 UV-I 585 W/m 20,6 km/h (4 Bft)
23.02.2014 12:46 10,3 C 9,4 C 72 % 1019,4 hPa 0,0 l/m 2 min 0 min 1,0 UV-I 636 W/m 46,3 km/h (6 Bft)
23.02.2014 12:48 10,5 C 10,0 C 72 % 1019,4 hPa 0,0 l/m 2 min 0 min 1,0 UV-I 636 W/m 15,4 km/h (3 Bft)
23.02.2014 12:50 10,7 C 10,0 C 71 % 1019,3 hPa 0,0 l/m 2 min 0 min 0,7 UV-I 636 W/m 18,0 km/h (3 Bft)
23.02.2014 12:52 10,7 C 10,0 C 70 % 1019,3 hPa 0,0 l/m 2 min 0 min 0,7 UV-I 636 W/m 25,7 km/h (4 Bft)
23.02.2014 12:54 10,8 C 10,0 C 70 % 1019,2 hPa 0,0 l/m 2 min 0 min 1,0 UV-I 520 W/m 18,0 km/h (3 Bft)
23.02.2014 12:56 10,9 C 10,0 C 70 % 1019,3 hPa 0,0 l/m 2 min 0 min 1,1 UV-I 343 W/m 18,0 km/h (3 Bft)
23.02.2014 12:58 11,1 C 10,0 C 69 % 1019,2 hPa 0,0 l/m 2 min 0 min 1,0 UV-I 561 W/m 20,6 km/h (4 Bft)
23.02.2014 13:00 11,1 C 10,0 C 68 % 1019,2 hPa 0,0 l/m 2 min 0 min 1,0 UV-I 462 W/m 25,7 km/h (4 Bft)
23.02.2014 13:02 11,2 C 10,6 C 69 % 1019,2 hPa 0,0 l/m 2 min 0 min 1,1 UV-I 497 W/m 12,9 km/h (3 Bft)
23.02.2014 13:04 11,3 C 10,0 C 68 % 1019,2 hPa 0,0 l/m 2 min 0 min 1,2 UV-I 459 W/m 23,2 km/h (4 Bft)
23.02.2014 13:06 11,3 C 10,6 C 68 % 1019,2 hPa 0,0 l/m 2 min 0 min 1,1 UV-I 496 W/m 20,6 km/h (4 Bft)
23.02.2014 13:08 11,3 C 10,6 C 69 % 1019,2 hPa 0,0 l/m 2 min 0 min 1,2 UV-I 438 W/m 18,0 km/h (3 Bft)
23.02.2014 13:10 11,2 C 10,0 C 68 % 1019,2 hPa 0,0 l/m 2 min 0 min 1,1 UV-I 508 W/m 36,0 km/h (5 Bft)
23.02.2014 13:12 11,1 C 10,0 C 68 % 1019,1 hPa 0,0 l/m 2 min 0 min 1,1 UV-I 497 W/m 15,4 km/h (3 Bft)
23.02.2014 13:14 11,1 C 10,0 C 68 % 1019,2 hPa 0,0 l/m 2 min 0 min 1,0 UV-I 462 W/m 12,9 km/h (3 Bft)
23.02.2014 13:16 11,1 C 10,0 C 67 % 1019,1 hPa 0,0 l/m 2 min 0 min 0,9 UV-I 418 W/m 20,6 km/h (4 Bft)
23.02.2014 13:18 11,1 C 10,0 C 68 % 1019,1 hPa 0,0 l/m 2 min 0 min 0,9 UV-I 309 W/m 12,9 km/h (3 Bft)
23.02.2014 13:20 11,1 C 10,0 C 69 % 1019,1 hPa 0,0 l/m 2 min 0 min 0,9 UV-I 348 W/m 10,3 km/h (2 Bft)
23.02.2014 13:22 11,2 C 10,0 C 68 % 1019,0 hPa 0,0 l/m 2 min 0 min 1,0 UV-I 429 W/m 15,4 km/h (3 Bft)
23.02.2014 13:24 11,2 C 10,0 C 68 % 1019,1 hPa 0,0 l/m 2 min 0 min 1,0 UV-I 452 W/m 28,3 km/h (4 Bft)
23.02.2014 13:26 11,2 C 10,0 C 68 % 1019,0 hPa 0,0 l/m 2 min 0 min 1,0 UV-I 480 W/m 23,2 km/h (4 Bft)
23.02.2014 13:28 11,1 C 10,0 C 68 % 1019,1 hPa 0,0 l/m 2 min 0 min 1,0 UV-I 471 W/m 23,2 km/h (4 Bft)
23.02.2014 13:30 11,2 C 10,0 C 69 % 1018,9 hPa 0,0 l/m 2 min 0 min 1,0 UV-I 457 W/m 18,0 km/h (3 Bft)
23.02.2014 13:32 11,2 C 10,0 C 68 % 1018,8 hPa 0,0 l/m 2 min 0 min 0,9 UV-I 313 W/m 25,7 km/h (4 Bft)
23.02.2014 13:34 11,2 C 10,0 C 68 % 1019,0 hPa 0,0 l/m 2 min 0 min 0,8 UV-I 339 W/m 15,4 km/h (3 Bft)
23.02.2014 13:36 11,2 C 10,0 C 67 % 1018,9 hPa 0,0 l/m 2 min 0 min 0,9 UV-I 378 W/m 25,7 km/h (4 Bft)
23.02.2014 13:38 11,0 C 9,4 C 68 % 1018,8 hPa 0,0 l/m 2 min 0 min 0,8 UV-I 406 W/m 20,6 km/h (4 Bft)
23.02.2014 13:40 11,1 C 9,4 C 69 % 1018,9 hPa 0,0 l/m 2 min 0 min 0,9 UV-I 418 W/m 18,0 km/h (3 Bft)
23.02.2014 13:42 11,2 C 10,0 C 69 % 1018,9 hPa 0,0 l/m 2 min 0 min 0,9 UV-I 427 W/m 23,2 km/h (4 Bft)
23.02.2014 13:44 11,2 C 10,0 C 69 % 1018,8 hPa 0,0 l/m 2 min 0 min 0,9 UV-I 413 W/m 25,7 km/h (4 Bft)
23.02.2014 13:46 11,1 C 9,4 C 69 % 1018,8 hPa 0,0 l/m 2 min 0 min 0,7 UV-I 281 W/m 18,0 km/h (3 Bft)
23.02.2014 13:48 11,0 C 9,4 C 69 % 1018,7 hPa 0,0 l/m 2 min 0 min 0,8 UV-I 346 W/m 18,0 km/h (3 Bft)
23.02.2014 13:50 10,9 C 9,4 C 69 % 1018,6 hPa 0,0 l/m 2 min 0 min 0,7 UV-I 350 W/m 25,7 km/h (4 Bft)
23.02.2014 13:52 11,1 C 9,4 C 70 % 1018,6 hPa 0,0 l/m 2 min 0 min 0,8 UV-I 359 W/m 12,9 km/h (3 Bft)
23.02.2014 13:54 11,1 C 9,4 C 70 % 1018,7 hPa 0,0 l/m 2 min 0 min 0,7 UV-I 376 W/m 25,7 km/h (4 Bft)
23.02.2014 13:56 11,1 C 9,4 C 69 % 1018,7 hPa 0,0 l/m 2 min 0 min 0,8 UV-I 406 W/m 23,2 km/h (4 Bft)
23.02.2014 13:58 11,0 C 9,4 C 70 % 1018,7 hPa 0,0 l/m 2 min 0 min 0,9 UV-I 439 W/m 20,6 km/h (4 Bft)
23.02.2014 14:00 11,0 C 9,4 C 70 % 1018,8 hPa 0,0 l/m 2 min 0 min 0,9 UV-I 441 W/m 30,9 km/h (5 Bft)
23.02.2014 14:02 11,1 C 9,4 C 71 % 1018,6 hPa 0,0 l/m 2 min 0 min 0,6 UV-I 425 W/m 20,6 km/h (4 Bft)
23.02.2014 14:04 11,1 C 9,4 C 70 % 1018,7 hPa 0,0 l/m 2 min 0 min 0,8 UV-I 406 W/m 18,0 km/h (3 Bft)
23.02.2014 14:06 11,1 C 9,4 C 69 % 1018,7 hPa 0,0 l/m 2 min 0 min 0,8 UV-I 429 W/m 25,7 km/h (4 Bft)
23.02.2014 14:08 11,2 C 10,0 C 70 % 1018,6 hPa 0,0 l/m 2 min 0 min 0,8 UV-I 378 W/m 18,0 km/h (3 Bft)
23.02.2014 14:10 11,3 C 10,0 C 70 % 1018,6 hPa 0,0 l/m 2 min 0 min 0,8 UV-I 401 W/m 28,3 km/h (4 Bft)
23.02.2014 14:12 11,3 C 10,0 C 69 % 1018,6 hPa 0,0 l/m 2 min 0 min 0,8 UV-I 399 W/m 28,3 km/h (4 Bft)
23.02.2014 14:14 11,2 C 9,4 C 69 % 1018,7 hPa 0,0 l/m 2 min 0 min 0,7 UV-I 374 W/m 25,7 km/h (4 Bft)
23.02.2014 14:16 11,1 C 9,4 C 69 % 1018,5 hPa 0,0 l/m 2 min 0 min 0,8 UV-I 399 W/m 25,7 km/h (4 Bft)
23.02.2014 14:18 11,1 C 9,4 C 69 % 1018,5 hPa 0,0 l/m 2 min 0 min 0,8 UV-I 411 W/m 23,2 km/h (4 Bft)
23.02.2014 14:20 11,1 C 9,4 C 70 % 1018,5 hPa 0,0 l/m 2 min 0 min 0,7 UV-I 413 W/m 12,9 km/h (3 Bft)
23.02.2014 14:22 11,3 C 10,0 C 70 % 1018,5 hPa 0,0 l/m 2 min 0 min 0,7 UV-I 413 W/m 28,3 km/h (4 Bft)
23.02.2014 14:24 11,2 C 10,0 C 69 % 1018,4 hPa 0,0 l/m 2 min 0 min 0,7 UV-I 399 W/m 33,5 km/h (5 Bft)
23.02.2014 14:26 11,2 C 10,0 C 69 % 1018,5 hPa 0,0 l/m 2 min 0 min 0,7 UV-I 404 W/m 28,3 km/h (4 Bft)
23.02.2014 14:28 11,2 C 10,0 C 69 % 1018,4 hPa 0,0 l/m 2 min 0 min 0,7 UV-I 404 W/m 20,6 km/h (4 Bft)
23.02.2014 14:30 11,3 C 10,0 C 70 % 1018,5 hPa 0,0 l/m 2 min 0 min 0,7 UV-I 394 W/m 20,6 km/h (4 Bft)
23.02.2014 14:32 11,4 C 10,0 C 69 % 1018,4 hPa 0,0 l/m 2 min 0 min 0,7 UV-I 404 W/m 38,6 km/h (5 Bft)
23.02.2014 14:34 11,4 C 10,0 C 69 % 1018,5 hPa 0,0 l/m 2 min 0 min 0,6 UV-I 401 W/m 25,7 km/h (4 Bft)
23.02.2014 14:36 11,3 C 10,0 C 69 % 1018,4 hPa 0,0 l/m 2 min 0 min 0,6 UV-I 410 W/m 18,0 km/h (3 Bft)
23.02.2014 14:38 11,5 C 10,0 C 69 % 1018,4 hPa 0,0 l/m 2 min 0 min 0,6 UV-I 406 W/m 18,0 km/h (3 Bft)
23.02.2014 14:40 11,5 C 10,0 C 68 % 1018,4 hPa 0,0 l/m 2 min 0 min 0,6 UV-I 388 W/m 20,6 km/h (4 Bft)
23.02.2014 14:42 11,5 C 10,0 C 69 % 1018,4 hPa 0,0 l/m 2 min 0 min 0,5 UV-I 360 W/m 23,2 km/h (4 Bft)
23.02.2014 14:44 11,5 C 10,0 C 68 % 1018,4 hPa 0,0 l/m 2 min 0 min 0,5 UV-I 339 W/m 25,7 km/h (4 Bft)
23.02.2014 14:46 11,4 C 10,0 C 68 % 1018,4 hPa 0,0 l/m 2 min 0 min 0,5 UV-I 352 W/m 20,6 km/h (4 Bft)
23.02.2014 14:48 11,4 C 10,0 C 68 % 1018,3 hPa 0,0 l/m 2 min 0 min 0,5 UV-I 343 W/m 20,6 km/h (4 Bft)
23.02.2014 14:50 11,4 C 10,0 C 69 % 1018,3 hPa 0,0 l/m 2 min 0 min 0,5 UV-I 339 W/m 30,9 km/h (5 Bft)
23.02.2014 14:52 11,4 C 10,0 C 68 % 1018,3 hPa 0,0 l/m 2 min 0 min 0,0 UV-I 350 W/m 30,9 km/h (5 Bft)
23.02.2014 14:54 11,3 C 10,0 C 68 % 1018,3 hPa 0,0 l/m 2 min 0 min 0,0 UV-I 237 W/m 25,7 km/h (4 Bft)
23.02.2014 14:56 11,3 C 10,0 C 68 % 1018,2 hPa 0,0 l/m 2 min 0 min 0,0 UV-I 355 W/m 28,3 km/h (4 Bft)
23.02.2014 14:58 11,3 C 10,0 C 69 % 1018,3 hPa 0,0 l/m 0 min 0 min 0,0 UV-I 185 W/m 20,6 km/h (4 Bft)
23.02.2014 15:00 11,3 C 10,0 C 69 % 1018,3 hPa 0,0 l/m 2 min 0 min 0,0 UV-I 325 W/m 15,4 km/h (3 Bft)
23.02.2014 15:02 11,3 C 10,0 C 69 % 1018,3 hPa 0,0 l/m 2 min 0 min 0,0 UV-I 264 W/m 25,7 km/h (4 Bft)
23.02.2014 15:04 11,2 C 10,0 C 70 % 1018,3 hPa 0,0 l/m 2 min 0 min 0,0 UV-I 279 W/m 18,0 km/h (3 Bft)
23.02.2014 15:06 11,2 C 10,0 C 70 % 1018,4 hPa 0,0 l/m 2 min 0 min 0,0 UV-I 239 W/m 23,2 km/h (4 Bft)
23.02.2014 15:08 11,1 C 10,0 C 69 % 1018,4 hPa 0,0 l/m 0 min 0 min 0,0 UV-I 186 W/m 28,3 km/h (4 Bft)
23.02.2014 15:10 10,9 C 9,4 C 70 % 1018,4 hPa 0,0 l/m 0 min 0 min 0,0 UV-I 165 W/m 23,2 km/h (4 Bft)
23.02.2014 15:12 10,8 C 9,4 C 70 % 1018,4 hPa 0,0 l/m 0 min 0 min 0,0 UV-I 169 W/m 23,2 km/h (4 Bft)
23.02.2014 15:14 10,7 C 9,4 C 71 % 1018,4 hPa 0,0 l/m 2 min 0 min 0,0 UV-I 209 W/m 20,6 km/h (4 Bft)
23.02.2014 15:16 10,7 C 9,4 C 71 % 1018,4 hPa 0,0 l/m 2 min 0 min 0,0 UV-I 309 W/m 20,6 km/h (4 Bft)
23.02.2014 15:18 10,8 C 10,0 C 71 % 1018,4 hPa 0,0 l/m 2 min 0 min 0,0 UV-I 302 W/m 15,4 km/h (3 Bft)
23.02.2014 15:20 10,8 C 10,0 C 71 % 1018,4 hPa 0,0 l/m 0 min 0 min 0,0 UV-I 186 W/m 23,2 km/h (4 Bft)
23.02.2014 15:22 10,8 C 10,0 C 70 % 1018,4 hPa 0,0 l/m 0 min 0 min 0,0 UV-I 169 W/m 25,7 km/h (4 Bft)
23.02.2014 15:24 10,8 C 9,4 C 71 % 1018,4 hPa 0,0 l/m 0 min 0 min 0,0 UV-I 155 W/m 18,0 km/h (3 Bft)
23.02.2014 15:26 10,7 C 9,4 C 71 % 1018,4 hPa 0,0 l/m 0 min 0 min 0,0 UV-I 156 W/m 20,6 km/h (4 Bft)
23.02.2014 15:28 10,6 C 9,4 C 71 % 1018,4 hPa 0,0 l/m 0 min 0 min 0,0 UV-I 156 W/m 12,9 km/h (3 Bft)
23.02.2014 15:30 10,6 C 9,4 C 71 % 1018,4 hPa 0,0 l/m 0 min 0 min 0,0 UV-I 148 W/m 25,7 km/h (4 Bft)
23.02.2014 15:32 10,4 C 9,4 C 71 % 1018,5 hPa 0,0 l/m 0 min 0 min 0,0 UV-I 146 W/m 15,4 km/h (3 Bft)
23.02.2014 15:34 10,4 C 9,4 C 71 % 1018,4 hPa 0,0 l/m 0 min 0 min 0,0 UV-I 149 W/m 18,0 km/h (3 Bft)
23.02.2014 15:36 10,3 C 9,4 C 72 % 1018,4 hPa 0,0 l/m 0 min 0 min 0,0 UV-I 151 W/m 23,2 km/h (4 Bft)
23.02.2014 15:38 10,3 C 9,4 C 72 % 1018,4 hPa 0,0 l/m 0 min 0 min 0,0 UV-I 156 W/m 12,9 km/h (3 Bft)
23.02.2014 15:40 10,3 C 9,4 C 72 % 1018,4 hPa 0,0 l/m 2 min 0 min 0,0 UV-I 211 W/m 20,6 km/h (4 Bft)
23.02.2014 15:42 10,4 C 9,4 C 72 % 1018,4 hPa 0,0 l/m 2 min 0 min 0,0 UV-I 285 W/m 12,9 km/h (3 Bft)
23.02.2014 15:44 10,6 C 9,4 C 73 % 1018,4 hPa 0,0 l/m 2 min 0 min 0,0 UV-I 272 W/m 18,0 km/h (3 Bft)
23.02.2014 15:46 10,7 C 9,4 C 71 % 1018,4 hPa 0,0 l/m 2 min 0 min 0,0 UV-I 239 W/m 20,6 km/h (4 Bft)
23.02.2014 15:48 10,7 C 9,4 C 71 % 1018,5 hPa 0,0 l/m 2 min 0 min 0,0 UV-I 202 W/m 25,7 km/h (4 Bft)
23.02.2014 15:50 10,7 C 9,4 C 72 % 1018,5 hPa 0,0 l/m 2 min 0 min 0,0 UV-I 192 W/m 25,7 km/h (4 Bft)
23.02.2014 15:52 10,6 C 9,4 C 71 % 1018,4 hPa 0,0 l/m 2 min 0 min 0,0 UV-I 179 W/m 33,5 km/h (5 Bft)
23.02.2014 15:54 10,5 C 9,4 C 71 % 1018,4 hPa 0,0 l/m 0 min 0 min 0,0 UV-I 148 W/m 12,9 km/h (3 Bft)
23.02.2014 15:56 10,5 C 8,9 C 72 % 1018,4 hPa 0,0 l/m 2 min 0 min 0,0 UV-I 188 W/m 23,2 km/h (4 Bft)
23.02.2014 15:58 10,4 C 8,9 C 72 % 1018,4 hPa 0,0 l/m 2 min 0 min 0,0 UV-I 202 W/m 20,6 km/h (4 Bft)
23.02.2014 16:00 10,4 C 8,9 C 72 % 1018,4 hPa 0,0 l/m 2 min 0 min 0,0 UV-I 202 W/m 18,0 km/h (3 Bft)
23.02.2014 16:02 10,4 C 9,4 C 72 % 1018,4 hPa 0,0 l/m 2 min 0 min 0,0 UV-I 211 W/m 18,0 km/h (3 Bft)
23.02.2014 16:04 10,5 C 9,4 C 72 % 1018,4 hPa 0,0 l/m 2 min 0 min 0,0 UV-I 181 W/m 23,2 km/h (4 Bft)
23.02.2014 16:06 10,6 C 9,4 C 72 % 1018,4 hPa 0,0 l/m 0 min 0 min 0,0 UV-I 121 W/m 12,9 km/h (3 Bft)
23.02.2014 16:08 10,5 C 9,4 C 72 % 1018,3 hPa 0,0 l/m 0 min 0 min 0,0 UV-I 111 W/m 25,7 km/h (4 Bft)
23.02.2014 16:10 10,4 C 8,9 C 72 % 1018,4 hPa 0,0 l/m 0 min 0 min 0,0 UV-I 105 W/m 25,7 km/h (4 Bft)
23.02.2014 16:12 10,3 C 8,9 C 72 % 1018,3 hPa 0,0 l/m 0 min 0 min 0,0 UV-I 107 W/m 15,4 km/h (3 Bft)
23.02.2014 16:14 10,3 C 8,9 C 72 % 1018,3 hPa 0,0 l/m 0 min 0 min 0,0 UV-I 93 W/m 18,0 km/h (3 Bft)
23.02.2014 16:16 10,2 C 8,9 C 73 % 1018,3 hPa 0,0 l/m 0 min 0 min 0,0 UV-I 90 W/m 10,3 km/h (2 Bft)
23.02.2014 16:18 10,2 C 8,9 C 73 % 1018,3 hPa 0,0 l/m 0 min 0 min 0,0 UV-I 91 W/m 15,4 km/h (3 Bft)
23.02.2014 16:20 10,1 C 8,9 C 73 % 1018,3 hPa 0,0 l/m 0 min 0 min 0,0 UV-I 107 W/m 18,0 km/h (3 Bft)
23.02.2014 16:22 10,1 C 8,9 C 73 % 1018,3 hPa 0,0 l/m 0 min 0 min 0,0 UV-I 114 W/m 20,6 km/h (4 Bft)
23.02.2014 16:24 10,0 C 8,9 C 73 % 1018,3 hPa 0,0 l/m 0 min 0 min 0,0 UV-I 102 W/m 20,6 km/h (4 Bft)
23.02.2014 16:26 9,9 C 8,3 C 73 % 1018,3 hPa 0,0 l/m 0 min 0 min 0,0 UV-I 98 W/m 20,6 km/h (4 Bft)
23.02.2014 16:28 9,9 C 8,3 C 73 % 1018,3 hPa 0,0 l/m 0 min 0 min 0,0 UV-I 83 W/m 23,2 km/h (4 Bft)
23.02.2014 16:30 9,9 C 8,3 C 73 % 1018,3 hPa 0,0 l/m 0 min 0 min 0,0 UV-I 81 W/m 18,0 km/h (3 Bft)
23.02.2014 16:32 9,9 C 8,3 C 74 % 1018,3 hPa 0,0 l/m 0 min 0 min 0,0 UV-I 90 W/m 20,6 km/h (4 Bft)
23.02.2014 16:34 9,8 C 8,3 C 74 % 1018,4 hPa 0,0 l/m 0 min 0 min 0,0 UV-I 88 W/m 18,0 km/h (3 Bft)
23.02.2014 16:36 9,8 C 8,3 C 74 % 1018,4 hPa 0,0 l/m 0 min 0 min 0,0 UV-I 81 W/m 18,0 km/h (3 Bft)
23.02.2014 16:38 9,8 C 8,3 C 74 % 1018,4 hPa 0,0 l/m 0 min 0 min 0,0 UV-I 74 W/m 20,6 km/h (4 Bft)
23.02.2014 16:40 9,7 C 8,3 C 74 % 1018,5 hPa 0,0 l/m 0 min 0 min 0,0 UV-I 72 W/m 18,0 km/h (3 Bft)
23.02.2014 16:42 9,8 C 8,3 C 74 % 1018,5 hPa 0,0 l/m 0 min 0 min 0,0 UV-I 74 W/m 25,7 km/h (4 Bft)
23.02.2014 16:44 9,7 C 8,3 C 74 % 1018,4 hPa 0,0 l/m 0 min 0 min 0,0 UV-I 76 W/m 23,2 km/h (4 Bft)
23.02.2014 16:46 9,7 C 8,3 C 74 % 1018,4 hPa 0,0 l/m 0 min 0 min 0,0 UV-I 77 W/m 18,0 km/h (3 Bft)
23.02.2014 16:48 9,8 C 8,3 C 74 % 1018,4 hPa 0,0 l/m 0 min 0 min 0,0 UV-I 77 W/m 23,2 km/h (4 Bft)
23.02.2014 16:50 9,8 C 8,3 C 74 % 1018,4 hPa 0,0 l/m 0 min 0 min 0,0 UV-I 79 W/m 12,9 km/h (3 Bft)
23.02.2014 16:52 9,8 C 8,3 C 74 % 1018,3 hPa 0,0 l/m 0 min 0 min 0,0 UV-I 77 W/m 18,0 km/h (3 Bft)
23.02.2014 16:54 9,8 C 8,3 C 75 % 1018,4 hPa 0,0 l/m 0 min 0 min 0,0 UV-I 74 W/m 15,4 km/h (3 Bft)
23.02.2014 16:56 9,8 C 8,3 C 74 % 1018,4 hPa 0,0 l/m 0 min 0 min 0,0 UV-I 72 W/m 15,4 km/h (3 Bft)
23.02.2014 16:58 9,8 C 8,3 C 74 % 1018,4 hPa 0,0 l/m 0 min 0 min 0,0 UV-I 69 W/m 20,6 km/h (4 Bft)
23.02.2014 17:00 9,8 C 8,3 C 74 % 1018,4 hPa 0,0 l/m 0 min 0 min 0,0 UV-I 65 W/m 12,9 km/h (3 Bft)
23.02.2014 17:02 9,8 C 8,3 C 74 % 1018,4 hPa 0,0 l/m 0 min 0 min 0,0 UV-I 62 W/m 12,9 km/h (3 Bft)
23.02.2014 17:04 9,7 C 8,3 C 74 % 1018,4 hPa 0,0 l/m 0 min 0 min 0,0 UV-I 58 W/m 20,6 km/h (4 Bft)
23.02.2014 17:06 9,7 C 8,3 C 74 % 1018,4 hPa 0,0 l/m 0 min 0 min 0,0 UV-I 56 W/m 12,9 km/h (3 Bft)
23.02.2014 17:08 9,7 C 8,3 C 74 % 1018,4 hPa 0,0 l/m 0 min 0 min 0,0 UV-I 54 W/m 15,4 km/h (3 Bft)
23.02.2014 17:10 9,7 C 8,3 C 75 % 1018,4 hPa 0,0 l/m 0 min 0 min 0,0 UV-I 53 W/m 12,9 km/h (3 Bft)
23.02.2014 17:12 9,6 C 7,8 C 75 % 1018,3 hPa 0,0 l/m 0 min 0 min 0,0 UV-I 49 W/m 12,9 km/h (3 Bft)
23.02.2014 17:14 9,6 C 7,8 C 75 % 1018,3 hPa 0,0 l/m 0 min 0 min 0,0 UV-I 47 W/m 10,3 km/h (2 Bft)
23.02.2014 17:16 9,5 C 7,8 C 75 % 1018,3 hPa 0,0 l/m 0 min 0 min 0,0 UV-I 44 W/m 12,9 km/h (3 Bft)
23.02.2014 17:18 9,5 C 7,8 C 75 % 1018,3 hPa 0,0 l/m 0 min 0 min 0,0 UV-I 42 W/m 20,6 km/h (4 Bft)
23.02.2014 17:20 9,5 C 7,8 C 75 % 1018,4 hPa 0,0 l/m 0 min 0 min 0,0 UV-I 42 W/m 12,9 km/h (3 Bft)
23.02.2014 17:22 9,4 C 7,8 C 75 % 1018,4 hPa 0,0 l/m 0 min 0 min 0,0 UV-I 40 W/m 15,4 km/h (3 Bft)
23.02.2014 17:24 9,4 C 7,8 C 75 % 1018,3 hPa 0,0 l/m 0 min 0 min 0,0 UV-I 39 W/m 15,4 km/h (3 Bft)
23.02.2014 17:26 9,4 C 7,8 C 75 % 1018,3 hPa 0,0 l/m 0 min 0 min 0,0 UV-I 35 W/m 20,6 km/h (4 Bft)
23.02.2014 17:28 9,4 C 7,8 C 75 % 1018,4 hPa 0,0 l/m 0 min 0 min 0,0 UV-I 33 W/m 12,9 km/h (3 Bft)
23.02.2014 17:30 9,4 C 7,8 C 75 % 1018,3 hPa 0,0 l/m 0 min 0 min 0,0 UV-I 30 W/m 15,4 km/h (3 Bft)
23.02.2014 17:32 9,3 C 7,8 C 75 % 1018,3 hPa 0,0 l/m 0 min 0 min 0,0 UV-I 28 W/m 15,4 km/h (3 Bft)
23.02.2014 17:34 9,3 C 7,2 C 75 % 1018,3 hPa 0,0 l/m 0 min 0 min 0,0 UV-I 25 W/m 18,0 km/h (3 Bft)
23.02.2014 17:36 9,2 C 7,2 C 76 % 1018,3 hPa 0,0 l/m 0 min 0 min 0,0 UV-I 23 W/m 10,3 km/h (2 Bft)
23.02.2014 17:38 9,2 C 7,2 C 76 % 1018,3 hPa 0,0 l/m 0 min 0 min 0,0 UV-I 21 W/m 12,9 km/h (3 Bft)
23.02.2014 17:40 9,2 C 7,2 C 76 % 1018,3 hPa 0,0 l/m 0 min 0 min 0,0 UV-I 19 W/m 12,9 km/h (3 Bft)
23.02.2014 17:42 9,2 C 7,2 C 76 % 1018,3 hPa 0,0 l/m 0 min 0 min 0,0 UV-I 18 W/m 18,0 km/h (3 Bft)
23.02.2014 17:44 9,1 C 7,2 C 76 % 1018,3 hPa 0,0 l/m 0 min 0 min 0,0 UV-I 16 W/m 10,3 km/h (2 Bft)
23.02.2014 17:46 9,1 C 7,2 C 76 % 1018,3 hPa 0,0 l/m 0 min 0 min 0,0 UV-I 16 W/m 7,7 km/h (2 Bft)
23.02.2014 17:48 9,0 C 7,2 C 76 % 1018,4 hPa 0,0 l/m 0 min 0 min 0,0 UV-I 14 W/m 12,9 km/h (3 Bft)
23.02.2014 17:50 8,9 C 6,7 C 77 % 1018,3 hPa 0,0 l/m 0 min 0 min 0,0 UV-I 12 W/m 10,3 km/h (2 Bft)
23.02.2014 17:52 8,9 C 6,7 C 77 % 1018,3 hPa 0,0 l/m 0 min 0 min 0,0 UV-I 11 W/m 12,9 km/h (3 Bft)
23.02.2014 17:54 8,9 C 6,7 C 77 % 1018,4 hPa 0,0 l/m 0 min 0 min 0,0 UV-I 9 W/m 10,3 km/h (2 Bft)
23.02.2014 17:56 8,9 C 6,7 C 77 % 1018,3 hPa 0,0 l/m 0 min 0 min 0,0 UV-I 7 W/m 0,0 km/h (0 Bft)
23.02.2014 17:58 8,8 C 6,7 C 77 % 1018,4 hPa 0,0 l/m 0 min 0 min 0,0 UV-I 5 W/m 12,9 km/h (3 Bft)
23.02.2014 18:00 8,8 C 6,7 C 77 % 1018,5 hPa 0,0 l/m 0 min 0 min 0,0 UV-I 5 W/m 12,9 km/h (3 Bft)
23.02.2014 18:02 8,7 C 6,7 C 77 % 1018,4 hPa 0,0 l/m 0 min 0 min 0,0 UV-I 0 W/m 7,7 km/h (2 Bft)
23.02.2014 18:04 8,7 C 6,7 C 78 % 1018,4 hPa 0,0 l/m 0 min 0 min 0,0 UV-I 0 W/m 0,0 km/h (0 Bft)
23.02.2014 18:06 8,7 C 6,7 C 78 % 1018,4 hPa 0,0 l/m 0 min 0 min 0,0 UV-I 0 W/m 7,7 km/h (2 Bft)
23.02.2014 18:08 8,6 C 6,7 C 78 % 1018,5 hPa 0,0 l/m 0 min 0 min 0,0 UV-I 0 W/m 7,7 km/h (2 Bft)
23.02.2014 18:10 8,5 C 6,7 C 78 % 1018,5 hPa 0,0 l/m 0 min 0 min 0,0 UV-I 0 W/m 0,0 km/h (0 Bft)
23.02.2014 18:12 8,4 C 6,1 C 79 % 1018,6 hPa 0,0 l/m 0 min 0 min 0,0 UV-I 0 W/m 0,0 km/h (0 Bft)
23.02.2014 18:14 8,4 C 6,1 C 79 % 1018,6 hPa 0,0 l/m 0 min 0 min 0,0 UV-I 0 W/m 0,0 km/h (0 Bft)
23.02.2014 18:16 8,3 C 6,1 C 79 % 1018,6 hPa 0,0 l/m 0 min 0 min 0,0 UV-I 0 W/m 2,6 km/h (1 Bft)
23.02.2014 18:18 8,3 C 6,1 C 80 % 1018,6 hPa 0,0 l/m 0 min 0 min 0,0 UV-I 0 W/m 0,0 km/h (0 Bft)
23.02.2014 18:20 8,2 C 6,1 C 80 % 1018,6 hPa 0,0 l/m 0 min 0 min 0,0 UV-I 0 W/m 5,1 km/h (1 Bft)
23.02.2014 18:22 8,2 C 6,1 C 84 % 1018,5 hPa 0,0 l/m 0 min 0 min 0,0 UV-I 0 W/m 0,0 km/h (0 Bft)
23.02.2014 18:24 8,1 C 6,1 C 80 % 1018,6 hPa 0,0 l/m 0 min 0 min 0,0 UV-I 0 W/m 7,7 km/h (2 Bft)
23.02.2014 18:26 8,1 C 6,1 C 81 % 1018,6 hPa 0,0 l/m 0 min 0 min 0,0 UV-I 0 W/m 7,7 km/h (2 Bft)
23.02.2014 18:28 8,1 C 6,1 C 81 % 1018,6 hPa 0,0 l/m 0 min 0 min 0,0 UV-I 0 W/m 5,1 km/h (1 Bft)
23.02.2014 18:30 8,0 C 5,6 C 81 % 1018,6 hPa 0,0 l/m 0 min 0 min 0,0 UV-I 0 W/m 7,7 km/h (2 Bft)
23.02.2014 18:32 8,0 C 5,6 C 81 % 1018,6 hPa 0,0 l/m 0 min 0 min 0,0 UV-I 0 W/m 7,7 km/h (2 Bft)
23.02.2014 18:34 7,9 C 5,6 C 81 % 1018,6 hPa 0,0 l/m 0 min 0 min 0,0 UV-I 0 W/m 7,7 km/h (2 Bft)
23.02.2014 18:36 7,9 C 5,6 C 81 % 1018,6 hPa 0,0 l/m 0 min 0 min 0,0 UV-I 0 W/m 7,7 km/h (2 Bft)
23.02.2014 18:38 7,9 C 5,6 C 81 % 1018,7 hPa 0,0 l/m 0 min 0 min 0,0 UV-I 0 W/m 7,7 km/h (2 Bft)
23.02.2014 18:40 7,8 C 5,6 C 82 % 1018,7 hPa 0,0 l/m 0 min 0 min 0,0 UV-I 0 W/m 2,6 km/h (1 Bft)
23.02.2014 18:42 7,8 C 5,6 C 82 % 1018,7 hPa 0,0 l/m 0 min 0 min 0,0 UV-I 0 W/m 10,3 km/h (2 Bft)
23.02.2014 18:44 7,7 C 5,6 C 82 % 1018,7 hPa 0,0 l/m 0 min 0 min 0,0 UV-I 0 W/m 0,0 km/h (0 Bft)
23.02.2014 18:46 7,7 C 5,6 C 82 % 1018,7 hPa 0,0 l/m 0 min 0 min 0,0 UV-I 0 W/m 5,1 km/h (1 Bft)
23.02.2014 18:48 7,7 C 5,6 C 82 % 1018,8 hPa 0,0 l/m 0 min 0 min 0,0 UV-I 0 W/m 10,3 km/h (2 Bft)
23.02.2014 18:50 7,6 C 5,6 C 82 % 1018,7 hPa 0,0 l/m 0 min 0 min 0,0 UV-I 0 W/m 0,0 km/h (0 Bft)
23.02.2014 18:52 7,6 C 5,0 C 83 % 1018,8 hPa 0,0 l/m 0 min 0 min 0,0 UV-I 0 W/m 0,0 km/h (0 Bft)
23.02.2014 18:54 7,5 C 5,0 C 83 % 1018,8 hPa 0,0 l/m 0 min 0 min 0,0 UV-I 0 W/m 7,7 km/h (2 Bft)
23.02.2014 18:56 7,5 C 5,0 C 83 % 1018,8 hPa 0,0 l/m 0 min 0 min 0,0 UV-I 0 W/m 5,1 km/h (1 Bft)
23.02.2014 18:58 7,4 C 5,0 C 83 % 1018,7 hPa 0,0 l/m 0 min 0 min 0,0 UV-I 0 W/m 10,3 km/h (2 Bft)
23.02.2014 19:00 7,4 C 5,0 C 83 % 1018,7 hPa 0,0 l/m 0 min 0 min 0,0 UV-I 0 W/m 2,6 km/h (1 Bft)
23.02.2014 19:02 7,4 C 5,0 C 83 % 1018,7 hPa 0,0 l/m 0 min 0 min 0,0 UV-I 0 W/m 0,0 km/h (0 Bft)
23.02.2014 19:04 7,3 C 5,0 C 83 % 1018,7 hPa 0,0 l/m 0 min 0 min 0,0 UV-I 0 W/m 7,7 km/h (2 Bft)
23.02.2014 19:06 7,3 C 5,0 C 83 % 1018,7 hPa 0,0 l/m 0 min 0 min 0,0 UV-I 0 W/m 0,0 km/h (0 Bft)
23.02.2014 19:08 7,3 C 5,0 C 83 % 1018,7 hPa 0,0 l/m 0 min 0 min 0,0 UV-I 0 W/m 5,1 km/h (1 Bft)
23.02.2014 19:10 7,3 C 5,0 C 84 % 1018,7 hPa 0,0 l/m 0 min 0 min 0,0 UV-I 0 W/m 0,0 km/h (0 Bft)
23.02.2014 19:12 7,3 C 5,0 C 84 % 1018,8 hPa 0,0 l/m 0 min 0 min 0,0 UV-I 0 W/m 12,9 km/h (3 Bft)
23.02.2014 19:14 7,3 C 5,0 C 84 % 1018,7 hPa 0,0 l/m 0 min 0 min 0,0 UV-I 0 W/m 10,3 km/h (2 Bft)
23.02.2014 19:16 7,3 C 5,0 C 83 % 1018,7 hPa 0,0 l/m 0 min 0 min 0,0 UV-I 0 W/m 7,7 km/h (2 Bft)
23.02.2014 19:18 7,3 C 5,0 C 83 % 1018,7 hPa 0,0 l/m 0 min 0 min 0,0 UV-I 0 W/m 2,6 km/h (1 Bft)
23.02.2014 19:20 7,3 C 5,0 C 83 % 1018,7 hPa 0,0 l/m 0 min 0 min 0,0 UV-I 0 W/m 7,7 km/h (2 Bft)
23.02.2014 19:22 7,3 C 5,0 C 83 % 1018,7 hPa 0,0 l/m 0 min 0 min 0,0 UV-I 0 W/m 5,1 km/h (1 Bft)
23.02.2014 19:24 7,2 C 5,0 C 83 % 1018,7 hPa 0,0 l/m 0 min 0 min 0,0 UV-I 0 W/m 5,1 km/h (1 Bft)
23.02.2014 19:26 7,2 C 5,0 C 83 % 1018,7 hPa 0,0 l/m 0 min 0 min 0,0 UV-I 0 W/m 2,6 km/h (1 Bft)
23.02.2014 19:28 7,2 C 5,0 C 83 % 1018,7 hPa 0,0 l/m 0 min 0 min 0,0 UV-I 0 W/m 15,4 km/h (3 Bft)
23.02.2014 19:30 7,2 C 5,0 C 83 % 1018,7 hPa 0,0 l/m 0 min 0 min 0,0 UV-I 0 W/m 10,3 km/h (2 Bft)
23.02.2014 19:32 7,2 C 5,0 C 82 % 1018,7 hPa 0,0 l/m 0 min 0 min 0,0 UV-I 0 W/m 15,4 km/h (3 Bft)
23.02.2014 19:34 7,3 C 5,0 C 82 % 1018,8 hPa 0,0 l/m 0 min 0 min 0,0 UV-I 0 W/m 7,7 km/h (2 Bft)
23.02.2014 19:36 7,3 C 5,0 C 82 % 1018,8 hPa 0,0 l/m 0 min 0 min 0,0 UV-I 0 W/m 2,6 km/h (1 Bft)
23.02.2014 19:38 7,2 C 5,0 C 82 % 1018,8 hPa 0,0 l/m 0 min 0 min 0,0 UV-I 0 W/m 0,0 km/h (0 Bft)
23.02.2014 19:40 7,2 C 5,0 C 82 % 1018,9 hPa 0,0 l/m 0 min 0 min 0,0 UV-I 0 W/m 2,6 km/h (1 Bft)
23.02.2014 19:42 7,1 C 5,0 C 82 % 1018,8 hPa 0,0 l/m 0 min 0 min 0,0 UV-I 0 W/m 0,0 km/h (0 Bft)
23.02.2014 19:44 7,0 C 5,0 C 82 % 1018,8 hPa 0,0 l/m 0 min 0 min 0,0 UV-I 0 W/m 2,6 km/h (1 Bft)
23.02.2014 19:46 6,9 C 5,0 C 83 % 1018,7 hPa 0,0 l/m 0 min 0 min 0,0 UV-I 0 W/m 7,7 km/h (2 Bft)
23.02.2014 19:48 6,8 C 4,4 C 83 % 1018,8 hPa 0,0 l/m 0 min 0 min 0,0 UV-I 0 W/m 5,1 km/h (1 Bft)
23.02.2014 19:50 6,8 C 4,4 C 83 % 1018,7 hPa 0,0 l/m 0 min 0 min 0,0 UV-I 0 W/m 7,7 km/h (2 Bft)
23.02.2014 19:52 6,8 C 4,4 C 83 % 1018,7 hPa 0,0 l/m 0 min 0 min 0,0 UV-I 0 W/m 0,0 km/h (0 Bft)
23.02.2014 19:54 6,7 C 4,4 C 83 % 1018,7 hPa 0,0 l/m 0 min 0 min 0,0 UV-I 0 W/m 0,0 km/h (0 Bft)
23.02.2014 19:56 6,7 C 4,4 C 84 % 1018,7 hPa 0,0 l/m 0 min 0 min 0,0 UV-I 0 W/m 0,0 km/h (0 Bft)
23.02.2014 19:58 6,7 C 4,4 C 84 % 1018,6 hPa 0,0 l/m 0 min 0 min 0,0 UV-I 0 W/m 5,1 km/h (1 Bft)
23.02.2014 20:00 6,7 C 4,4 C 83 % 1018,6 hPa 0,0 l/m 0 min 0 min 0,0 UV-I 0 W/m 5,1 km/h (1 Bft)
23.02.2014 20:02 6,6 C 4,4 C 83 % 1018,7 hPa 0,0 l/m 0 min 0 min 0,0 UV-I 0 W/m 7,7 km/h (2 Bft)
23.02.2014 20:04 6,6 C 4,4 C 84 % 1018,7 hPa 0,0 l/m 0 min 0 min 0,0 UV-I 0 W/m 5,1 km/h (1 Bft)
23.02.2014 20:06 6,6 C 4,4 C 84 % 1018,7 hPa 0,0 l/m 0 min 0 min 0,0 UV-I 0 W/m 7,7 km/h (2 Bft)
23.02.2014 20:08 6,5 C 4,4 C 84 % 1018,7 hPa 0,0 l/m 0 min 0 min 0,0 UV-I 0 W/m 7,7 km/h (2 Bft)
23.02.2014 20:10 6,5 C 4,4 C 84 % 1018,6 hPa 0,0 l/m 0 min 0 min 0,0 UV-I 0 W/m 5,1 km/h (1 Bft)
23.02.2014 20:12 6,4 C 4,4 C 84 % 1018,6 hPa 0,0 l/m 0 min 0 min 0,0 UV-I 0 W/m 2,6 km/h (1 Bft)
23.02.2014 20:14 6,4 C 4,4 C 84 % 1018,6 hPa 0,0 l/m 0 min 0 min 0,0 UV-I 0 W/m 2,6 km/h (1 Bft)
23.02.2014 20:16 6,4 C 4,4 C 84 % 1018,6 hPa 0,0 l/m 0 min 0 min 0,0 UV-I 0 W/m 5,1 km/h (1 Bft)
23.02.2014 20:18 6,4 C 4,4 C 84 % 1018,6 hPa 0,0 l/m 0 min 0 min 0,0 UV-I 0 W/m 2,6 km/h (1 Bft)
23.02.2014 20:20 6,4 C 4,4 C 84 % 1018,7 hPa 0,0 l/m 0 min 0 min 0,0 UV-I 0 W/m 2,6 km/h (1 Bft)
23.02.2014 20:22 6,4 C 3,9 C 84 % 1018,7 hPa 0,0 l/m 0 min 0 min 0,0 UV-I 0 W/m 0,0 km/h (0 Bft)
23.02.2014 20:24 6,4 C 3,9 C 84 % 1018,7 hPa 0,0 l/m 0 min 0 min 0,0 UV-I 0 W/m 0,0 km/h (0 Bft)
23.02.2014 20:26 6,3 C 3,9 C 84 % 1018,6 hPa 0,0 l/m 0 min 0 min 0,0 UV-I 0 W/m 0,0 km/h (0 Bft)
23.02.2014 20:28 6,2 C 3,9 C 84 % 1018,6 hPa 0,0 l/m 0 min 0 min 0,0 UV-I 0 W/m 0,0 km/h (0 Bft)
23.02.2014 20:30 6,2 C 3,9 C 84 % 1018,6 hPa 0,0 l/m 0 min 0 min 0,0 UV-I 0 W/m 5,1 km/h (1 Bft)
23.02.2014 20:32 6,2 C 3,9 C 85 % 1018,5 hPa 0,0 l/m 0 min 0 min 0,0 UV-I 0 W/m 5,1 km/h (1 Bft)
23.02.2014 20:34 6,1 C 3,9 C 85 % 1018,6 hPa 0,0 l/m 0 min 0 min 0,0 UV-I 0 W/m 12,9 km/h (3 Bft)
23.02.2014 20:36 6,1 C 3,9 C 85 % 1018,6 hPa 0,0 l/m 0 min 0 min 0,0 UV-I 0 W/m 5,1 km/h (1 Bft)
23.02.2014 20:38 6,1 C 3,9 C 85 % 1018,6 hPa 0,0 l/m 0 min 0 min 0,0 UV-I 0 W/m 0,0 km/h (0 Bft)
23.02.2014 20:40 6,0 C 3,9 C 85 % 1018,6 hPa 0,0 l/m 0 min 0 min 0,0 UV-I 0 W/m 2,6 km/h (1 Bft)
23.02.2014 20:42 6,0 C 3,9 C 85 % 1018,6 hPa 0,0 l/m 0 min 0 min 0,0 UV-I 0 W/m 2,6 km/h (1 Bft)
23.02.2014 20:44 6,0 C 3,9 C 85 % 1018,6 hPa 0,0 l/m 0 min 0 min 0,0 UV-I 0 W/m 7,7 km/h (2 Bft)
23.02.2014 20:46 5,9 C 3,9 C 85 % 1018,6 hPa 0,0 l/m 0 min 0 min 0,0 UV-I 0 W/m 0,0 km/h (0 Bft)
23.02.2014 20:48 5,9 C 3,9 C 86 % 1018,6 hPa 0,0 l/m 0 min 0 min 0,0 UV-I 0 W/m 2,6 km/h (1 Bft)
23.02.2014 20:50 5,9 C 3,9 C 86 % 1018,6 hPa 0,0 l/m 0 min 0 min 0,0 UV-I 0 W/m 0,0 km/h (0 Bft)
23.02.2014 20:52 5,9 C 3,9 C 86 % 1018,5 hPa 0,0 l/m 0 min 0 min 0,0 UV-I 0 W/m 5,1 km/h (1 Bft)
23.02.2014 20:54 5,8 C 3,9 C 86 % 1018,5 hPa 0,0 l/m 0 min 0 min 0,0 UV-I 0 W/m 10,3 km/h (2 Bft)
23.02.2014 20:56 5,8 C 3,9 C 86 % 1018,6 hPa 0,0 l/m 0 min 0 min 0,0 UV-I 0 W/m 7,7 km/h (2 Bft)
23.02.2014 20:58 5,8 C 3,9 C 86 % 1018,5 hPa 0,0 l/m 0 min 0 min 0,0 UV-I 0 W/m 0,0 km/h (0 Bft)
23.02.2014 21:00 5,8 C 3,9 C 87 % 1018,5 hPa 0,0 l/m 0 min 0 min 0,0 UV-I 0 W/m 7,7 km/h (2 Bft)
23.02.2014 21:02 5,8 C 3,9 C 87 % 1018,6 hPa 0,0 l/m 0 min 0 min 0,0 UV-I 0 W/m 5,1 km/h (1 Bft)
23.02.2014 21:04 5,7 C 3,9 C 87 % 1018,5 hPa 0,0 l/m 0 min 0 min 0,0 UV-I 0 W/m 7,7 km/h (2 Bft)
23.02.2014 21:06 5,7 C 3,9 C 87 % 1018,6 hPa 0,0 l/m 0 min 0 min 0,0 UV-I 0 W/m 7,7 km/h (2 Bft)
23.02.2014 21:08 5,7 C 3,9 C 87 % 1018,5 hPa 0,0 l/m 0 min 0 min 0,0 UV-I 0 W/m 7,7 km/h (2 Bft)
23.02.2014 21:10 5,7 C 3,9 C 87 % 1018,6 hPa 0,0 l/m 0 min 0 min 0,0 UV-I 0 W/m 7,7 km/h (2 Bft)
23.02.2014 21:12 5,7 C 3,9 C 87 % 1018,4 hPa 0,0 l/m 0 min 0 min 0,0 UV-I 0 W/m 5,1 km/h (1 Bft)
23.02.2014 21:14 5,7 C 3,9 C 87 % 1018,5 hPa 0,0 l/m 0 min 0 min 0,0 UV-I 0 W/m 7,7 km/h (2 Bft)
23.02.2014 21:16 5,7 C 3,9 C 87 % 1018,5 hPa 0,0 l/m 0 min 0 min 0,0 UV-I 0 W/m 7,7 km/h (2 Bft)
23.02.2014 21:18 5,7 C 3,9 C 87 % 1018,5 hPa 0,0 l/m 0 min 0 min 0,0 UV-I 0 W/m 5,1 km/h (1 Bft)
23.02.2014 21:20 5,7 C 3,9 C 87 % 1018,5 hPa 0,0 l/m 0 min 0 min 0,0 UV-I 0 W/m 5,1 km/h (1 Bft)
23.02.2014 21:22 5,7 C 3,3 C 87 % 1018,5 hPa 0,0 l/m 0 min 0 min 0,0 UV-I 0 W/m 7,7 km/h (2 Bft)
23.02.2014 21:24 5,7 C 3,3 C 87 % 1018,5 hPa 0,0 l/m 0 min 0 min 0,0 UV-I 0 W/m 7,7 km/h (2 Bft)
23.02.2014 21:26 5,6 C 3,3 C 87 % 1018,5 hPa 0,0 l/m 0 min 0 min 0,0 UV-I 0 W/m 7,7 km/h (2 Bft)
23.02.2014 21:28 5,6 C 3,3 C 87 % 1018,5 hPa 0,0 l/m 0 min 0 min 0,0 UV-I 0 W/m 2,6 km/h (1 Bft)
23.02.2014 21:30 5,6 C 3,3 C 87 % 1018,5 hPa 0,0 l/m 0 min 0 min 0,0 UV-I 0 W/m 5,1 km/h (1 Bft)
23.02.2014 21:32 5,6 C 3,3 C 87 % 1018,5 hPa 0,0 l/m 0 min 0 min 0,0 UV-I 0 W/m 10,3 km/h (2 Bft)
23.02.2014 21:34 5,6 C 3,3 C 87 % 1018,5 hPa 0,0 l/m 0 min 0 min 0,0 UV-I 0 W/m 7,7 km/h (2 Bft)
23.02.2014 21:36 5,6 C 3,3 C 87 % 1018,5 hPa 0,0 l/m 0 min 0 min 0,0 UV-I 0 W/m 12,9 km/h (3 Bft)
23.02.2014 21:38 5,6 C 3,9 C 87 % 1018,5 hPa 0,0 l/m 0 min 0 min 0,0 UV-I 0 W/m 5,1 km/h (1 Bft)
23.02.2014 21:40 5,6 C 3,3 C 87 % 1018,5 hPa 0,0 l/m 0 min 0 min 0,0 UV-I 0 W/m 7,7 km/h (2 Bft)
23.02.2014 21:42 5,6 C 3,9 C 87 % 1018,5 hPa 0,0 l/m 0 min 0 min 0,0 UV-I 0 W/m 10,3 km/h (2 Bft)
23.02.2014 21:44 5,5 C 3,3 C 87 % 1018,5 hPa 0,0 l/m 0 min 0 min 0,0 UV-I 0 W/m 5,1 km/h (1 Bft)
23.02.2014 21:46 5,5 C 3,3 C 87 % 1018,4 hPa 0,0 l/m 0 min 0 min 0,0 UV-I 0 W/m 12,9 km/h (3 Bft)
23.02.2014 21:48 5,5 C 3,9 C 87 % 1018,4 hPa 0,0 l/m 0 min 0 min 0,0 UV-I 0 W/m 10,3 km/h (2 Bft)
23.02.2014 21:50 5,5 C 3,9 C 87 % 1018,4 hPa 0,0 l/m 0 min 0 min 0,0 UV-I 0 W/m 10,3 km/h (2 Bft)
23.02.2014 21:52 5,5 C 3,9 C 87 % 1018,4 hPa 0,0 l/m 0 min 0 min 0,0 UV-I 0 W/m 10,3 km/h (2 Bft)
23.02.2014 21:54 5,5 C 3,9 C 87 % 1018,4 hPa 0,0 l/m 0 min 0 min 0,0 UV-I 0 W/m 7,7 km/h (2 Bft)
23.02.2014 21:56 5,6 C 3,9 C 87 % 1018,4 hPa 0,0 l/m 0 min 0 min 0,0 UV-I 0 W/m 12,9 km/h (3 Bft)
23.02.2014 21:58 5,6 C 3,3 C 87 % 1018,4 hPa 0,0 l/m 0 min 0 min 0,0 UV-I 0 W/m 10,3 km/h (2 Bft)
23.02.2014 22:00 5,5 C 3,3 C 87 % 1018,4 hPa 0,0 l/m 0 min 0 min 0,0 UV-I 0 W/m 7,7 km/h (2 Bft)
23.02.2014 22:02 5,5 C 3,3 C 87 % 1018,3 hPa 0,0 l/m 0 min 0 min 0,0 UV-I 0 W/m 10,3 km/h (2 Bft)
23.02.2014 22:04 5,5 C 3,3 C 87 % 1018,3 hPa 0,0 l/m 0 min 0 min 0,0 UV-I 0 W/m 10,3 km/h (2 Bft)
23.02.2014 22:06 5,4 C 3,3 C 87 % 1018,3 hPa 0,0 l/m 0 min 0 min 0,0 UV-I 0 W/m 7,7 km/h (2 Bft)
23.02.2014 22:08 5,4 C 3,3 C 87 % 1018,3 hPa 0,0 l/m 0 min 0 min 0,0 UV-I 0 W/m 12,9 km/h (3 Bft)
23.02.2014 22:10 5,4 C 3,3 C 87 % 1018,3 hPa 0,0 l/m 0 min 0 min 0,0 UV-I 0 W/m 7,7 km/h (2 Bft)
23.02.2014 22:12 5,4 C 3,3 C 87 % 1018,3 hPa 0,0 l/m 0 min 0 min 0,0 UV-I 0 W/m 5,1 km/h (1 Bft)
23.02.2014 22:14 5,3 C 3,3 C 87 % 1018,3 hPa 0,0 l/m 0 min 0 min 0,0 UV-I 0 W/m 12,9 km/h (3 Bft)
23.02.2014 22:16 5,3 C 3,3 C 87 % 1018,3 hPa 0,0 l/m 0 min 0 min 0,0 UV-I 0 W/m 10,3 km/h (2 Bft)
23.02.2014 22:18 5,3 C 3,3 C 87 % 1018,2 hPa 0,0 l/m 0 min 0 min 0,0 UV-I 0 W/m 5,1 km/h (1 Bft)
23.02.2014 22:20 5,3 C 3,3 C 87 % 1018,2 hPa 0,0 l/m 0 min 0 min 0,0 UV-I 0 W/m 7,7 km/h (2 Bft)
23.02.2014 22:22 5,3 C 3,3 C 87 % 1018,2 hPa 0,0 l/m 0 min 0 min 0,0 UV-I 0 W/m 10,3 km/h (2 Bft)
23.02.2014 22:24 5,3 C 3,3 C 87 % 1018,3 hPa 0,0 l/m 0 min 0 min 0,0 UV-I 0 W/m 10,3 km/h (2 Bft)
23.02.2014 22:26 5,2 C 3,3 C 87 % 1018,2 hPa 0,0 l/m 0 min 0 min 0,0 UV-I 0 W/m 5,1 km/h (1 Bft)
23.02.2014 22:28 5,2 C 3,3 C 87 % 1018,2 hPa 0,0 l/m 0 min 0 min 0,0 UV-I 0 W/m 2,6 km/h (1 Bft)
23.02.2014 22:30 5,2 C 3,3 C 87 % 1018,2 hPa 0,0 l/m 0 min 0 min 0,0 UV-I 0 W/m 2,6 km/h (1 Bft)
23.02.2014 22:32 5,2 C 3,3 C 87 % 1018,3 hPa 0,0 l/m 0 min 0 min 0,0 UV-I 0 W/m 5,1 km/h (1 Bft)
23.02.2014 22:34 5,1 C 3,3 C 87 % 1018,2 hPa 0,0 l/m 0 min 0 min 0,0 UV-I 0 W/m 5,1 km/h (1 Bft)
23.02.2014 22:36 5,1 C 3,3 C 87 % 1018,2 hPa 0,0 l/m 0 min 0 min 0,0 UV-I 0 W/m 0,0 km/h (0 Bft)
23.02.2014 22:38 5,1 C 3,3 C 87 % 1018,2 hPa 0,0 l/m 0 min 0 min 0,0 UV-I 0 W/m 7,7 km/h (2 Bft)
23.02.2014 22:40 5,1 C 3,3 C 87 % 1018,2 hPa 0,0 l/m 0 min 0 min 0,0 UV-I 0 W/m 10,3 km/h (2 Bft)
23.02.2014 22:42 5,0 C 3,3 C 87 % 1018,3 hPa 0,0 l/m 0 min 0 min 0,0 UV-I 0 W/m 10,3 km/h (2 Bft)
23.02.2014 22:44 5,0 C 3,3 C 87 % 1018,3 hPa 0,0 l/m 0 min 0 min 0,0 UV-I 0 W/m 5,1 km/h (1 Bft)
23.02.2014 22:46 5,0 C 3,3 C 87 % 1018,3 hPa 0,0 l/m 0 min 0 min 0,0 UV-I 0 W/m 7,7 km/h (2 Bft)
23.02.2014 22:48 5,0 C 3,3 C 87 % 1018,2 hPa 0,0 l/m 0 min 0 min 0,0 UV-I 0 W/m 5,1 km/h (1 Bft)
23.02.2014 22:50 5,0 C 3,3 C 87 % 1018,2 hPa 0,0 l/m 0 min 0 min 0,0 UV-I 0 W/m 10,3 km/h (2 Bft)
23.02.2014 22:52 5,0 C 3,3 C 87 % 1018,2 hPa 0,0 l/m 0 min 0 min 0,0 UV-I 0 W/m 12,9 km/h (3 Bft)
23.02.2014 22:54 5,0 C 3,3 C 87 % 1018,2 hPa 0,0 l/m 0 min 0 min 0,0 UV-I 0 W/m 15,4 km/h (3 Bft)
23.02.2014 22:56 5,0 C 3,3 C 87 % 1018,2 hPa 0,0 l/m 0 min 0 min 0,0 UV-I 0 W/m 10,3 km/h (2 Bft)
23.02.2014 22:58 5,0 C 3,3 C 87 % 1018,1 hPa 0,0 l/m 0 min 0 min 0,0 UV-I 0 W/m 7,7 km/h (2 Bft)
23.02.2014 23:00 4,9 C 3,3 C 87 % 1018,2 hPa 0,0 l/m 0 min 0 min 0,0 UV-I 0 W/m 15,4 km/h (3 Bft)
23.02.2014 23:02 4,9 C 3,3 C 87 % 1018,1 hPa 0,0 l/m 0 min 0 min 0,0 UV-I 0 W/m 10,3 km/h (2 Bft)
23.02.2014 23:04 4,9 C 3,3 C 87 % 1018,1 hPa 0,0 l/m 0 min 0 min 0,0 UV-I 0 W/m 10,3 km/h (2 Bft)
23.02.2014 23:06 4,9 C 3,3 C 87 % 1018,2 hPa 0,0 l/m 0 min 0 min 0,0 UV-I 0 W/m 12,9 km/h (3 Bft)
23.02.2014 23:08 4,9 C 3,3 C 87 % 1018,1 hPa 0,0 l/m 0 min 0 min 0,0 UV-I 0 W/m 7,7 km/h (2 Bft)
23.02.2014 23:10 4,9 C 3,3 C 87 % 1018,1 hPa 0,0 l/m 0 min 0 min 0,0 UV-I 0 W/m 10,3 km/h (2 Bft)
23.02.2014 23:12 4,9 C 3,3 C 87 % 1018,1 hPa 0,0 l/m 0 min 0 min 0,0 UV-I 0 W/m 2,6 km/h (1 Bft)
23.02.2014 23:14 4,9 C 3,3 C 87 % 1018,0 hPa 0,0 l/m 0 min 0 min 0,0 UV-I 0 W/m 7,7 km/h (2 Bft)
23.02.2014 23:16 4,9 C 3,3 C 87 % 1018,0 hPa 0,0 l/m 0 min 0 min 0,0 UV-I 0 W/m 10,3 km/h (2 Bft)
23.02.2014 23:18 4,9 C 3,3 C 87 % 1018,1 hPa 0,0 l/m 0 min 0 min 0,0 UV-I 0 W/m 12,9 km/h (3 Bft)
23.02.2014 23:20 4,9 C 3,3 C 87 % 1018,0 hPa 0,0 l/m 0 min 0 min 0,0 UV-I 0 W/m 10,3 km/h (2 Bft)
23.02.2014 23:22 4,9 C 3,3 C 87 % 1018,0 hPa 0,0 l/m 0 min 0 min 0,0 UV-I 0 W/m 10,3 km/h (2 Bft)
23.02.2014 23:24 4,9 C 3,3 C 87 % 1018,0 hPa 0,0 l/m 0 min 0 min 0,0 UV-I 0 W/m 12,9 km/h (3 Bft)
23.02.2014 23:26 4,9 C 2,8 C 87 % 1018,0 hPa 0,0 l/m 0 min 0 min 0,0 UV-I 0 W/m 10,3 km/h (2 Bft)
23.02.2014 23:28 4,9 C 3,3 C 87 % 1018,0 hPa 0,0 l/m 0 min 0 min 0,0 UV-I 0 W/m 12,9 km/h (3 Bft)
23.02.2014 23:30 4,9 C 2,8 C 87 % 1018,0 hPa 0,0 l/m 0 min 0 min 0,0 UV-I 0 W/m 10,3 km/h (2 Bft)
23.02.2014 23:32 4,8 C 2,8 C 87 % 1017,9 hPa 0,0 l/m 0 min 0 min 0,0 UV-I 0 W/m 10,3 km/h (2 Bft)
23.02.2014 23:34 4,8 C 2,8 C 87 % 1017,9 hPa 0,0 l/m 0 min 0 min 0,0 UV-I 0 W/m 7,7 km/h (2 Bft)
23.02.2014 23:36 4,7 C 2,8 C 87 % 1017,9 hPa 0,0 l/m 0 min 0 min 0,0 UV-I 0 W/m 7,7 km/h (2 Bft)
23.02.2014 23:38 4,7 C 2,8 C 87 % 1017,9 hPa 0,0 l/m 0 min 0 min 0,0 UV-I 0 W/m 10,3 km/h (2 Bft)
23.02.2014 23:40 4,7 C 2,8 C 87 % 1017,9 hPa 0,0 l/m 0 min 0 min 0,0 UV-I 0 W/m 7,7 km/h (2 Bft)
23.02.2014 23:42 4,7 C 2,8 C 87 % 1017,9 hPa 0,0 l/m 0 min 0 min 0,0 UV-I 0 W/m 10,3 km/h (2 Bft)
23.02.2014 23:44 4,7 C 2,8 C 87 % 1017,8 hPa 0,0 l/m 0 min 0 min 0,0 UV-I 0 W/m 7,7 km/h (2 Bft)
23.02.2014 23:46 4,6 C 2,8 C 87 % 1017,8 hPa 0,0 l/m 0 min 0 min 0,0 UV-I 0 W/m 10,3 km/h (2 Bft)
23.02.2014 23:48 4,6 C 2,8 C 87 % 1017,8 hPa 0,0 l/m 0 min 0 min 0,0 UV-I 0 W/m 12,9 km/h (3 Bft)
23.02.2014 23:50 4,6 C 2,8 C 87 % 1017,7 hPa 0,0 l/m 0 min 0 min 0,0 UV-I 0 W/m 7,7 km/h (2 Bft)
23.02.2014 23:52 4,6 C 2,8 C 87 % 1017,8 hPa 0,0 l/m 0 min 0 min 0,0 UV-I 0 W/m 10,3 km/h (2 Bft)
23.02.2014 23:54 4,6 C 2,8 C 87 % 1017,8 hPa 0,0 l/m 0 min 0 min 0,0 UV-I 0 W/m 7,7 km/h (2 Bft)
23.02.2014 23:56 4,5 C 2,8 C 87 % 1017,7 hPa 0,0 l/m 0 min 0 min 0,0 UV-I 0 W/m 7,7 km/h (2 Bft)
23.02.2014 23:58 4,5 C 2,8 C 87 % 1017,7 hPa 0,0 l/m 0 min 0 min 0,0 UV-I 0 W/m 2,6 km/h (1 Bft)
_ Min-Zeit 07:54 04:04 13:16 23:50 - - - - - 00:00
Minimum _ 0,6 C -0,6 C 67 % 1017,7 hPa - - - - - 0,0 km/h (0 Bft)
_ Max-Zeit 14:38 13:02 08:50 08:44 00:00 08:40 00:00 13:04 12:46 12:46
Maximum _ 11,5 C 10,6 C 95 % 1019,9 hPa 0,0 l/m 2 min 0 min 1,2 UV-I 636 W/m 46,3 km/h
SW (6 Bft)
Durchschnitt _ 5,7 C 4,1 C 83 % 1018,9 hPa #0,0 l/m #6:22 h #0 min. 0,7 UV-I 228 W/m 10,7 km/h (2 Bft)
© 2014 W. Hausmann